Darstellungsparameter: Aktuell verwendete Einstellungen:
Skalierung der Graphiken ... ?
xyx+y,   Skalierungsfaktor:      Skalierung: Modus: x, Faktor: 1
Darstellungszeitraum ... ?
Vom - - bis: - -   Zeitraum: 03.01.2011 - 16.01.2011
Min/Max/Avg-Anzeige ... ?
Zeige MMA aktuell
Zeige MMA Monat
Zeige MMA alles
Zeige --A aktuell
Zeige --A Monat
Zeige --A alles
Keine MMA-Anzeige
MMA:
Keine MMA-Graphiken
MMA-Basis: 03.01.2011 - 16.01.2011
Quicknavigation für Darstellung... ?
Tage:      1T, 2T, 3T, 5T -1T -2T -3T -5T +1T +2T +3T +5T
Wochen: 1W, 2W, 3W -1W -2W -3W +1W +2W +3W
Monate: 1M, 3M, 6M -1M -3M -6M +1M +3M +6M
Jahre:    1J, 3J, 5J, 10J -1J -3J -5J -10J +1J +3J +5J +10J
Nutze für die Darstellung ... ?
Originaldaten oder Mittelwerte auf ...
Stundenbasis Tagesbasis Wochenbasis
Monatsbasis Jahresbasis      Datenbasis: Original-Daten
Darstellen als:
Statistik (Auto) Statistik J:M      Darstellung:
Zur Graphik,    zurück zur Übersicht aller Sensoren.
 
Tabellarische Datenbersicht: ?
 
Sensor: Nr:Datum:Temp:Feuchte:Taupunkt:
Aussen-T/F 1 03-01-2011 00:05:03 0.1 C 89 % -1.49 C
2 03-01-2011 00:17:03 0.1 C 89 % -1.49 C
3 03-01-2011 00:29:03 0.2 C 89 % -1.39 C
4 03-01-2011 00:41:03 0.1 C 89 % -1.49 C
5 03-01-2011 00:53:03 0.1 C 88 % -1.65 C
6 03-01-2011 01:05:03 0 C 88 % -1.74 C
7 03-01-2011 01:17:03 0.1 C 88 % -1.65 C
8 03-01-2011 01:29:03 0.1 C 88 % -1.65 C
9 03-01-2011 01:41:03 0 C 88 % -1.74 C
10 03-01-2011 01:53:03 0.1 C 88 % -1.65 C
11 03-01-2011 02:05:04 0 C 88 % -1.74 C
12 03-01-2011 02:17:04 0 C 88 % -1.74 C
13 03-01-2011 02:29:04 -0.2 C 88 % -1.94 C
14 03-01-2011 02:41:04 -0.2 C 88 % -1.94 C
15 03-01-2011 02:53:04 -0.4 C 88 % -2.14 C
16 03-01-2011 03:05:04 -0.2 C 88 % -1.94 C
17 03-01-2011 03:17:04 -0.2 C 88 % -1.94 C
18 03-01-2011 03:29:04 -0.3 C 87 % -2.2 C
19 03-01-2011 03:41:04 -0.4 C 86 % -2.45 C
20 03-01-2011 03:53:04 -0.4 C 85 % -2.61 C
21 03-01-2011 04:05:04 -0.6 C 84 % -2.96 C
22 03-01-2011 04:17:04 -1.1 C 84 % -3.45 C
23 03-01-2011 04:29:04 -0.9 C 85 % -3.1 C
24 03-01-2011 04:41:04 -0.9 C 84 % -3.26 C
25 03-01-2011 04:53:04 -0.9 C 85 % -3.1 C
Sensor: Nr:Datum:Temp:Feuchte:Taupunkt:
Aussen-T/F 26 03-01-2011 05:05:04 -0.9 C 85 % -3.1 C
27 03-01-2011 05:17:04 -1 C 86 % -3.04 C
28 03-01-2011 05:29:04 -1.1 C 85 % -3.29 C
29 03-01-2011 05:41:04 -1.1 C 85 % -3.29 C
30 03-01-2011 05:53:04 -1.1 C 85 % -3.29 C
31 03-01-2011 06:05:04 -1.1 C 85 % -3.29 C
32 03-01-2011 06:17:05 -1.1 C 86 % -3.14 C
33 03-01-2011 06:29:05 -1.1 C 87 % -2.98 C
34 03-01-2011 06:41:05 -1.2 C 87 % -3.08 C
35 03-01-2011 06:53:05 -1.1 C 88 % -2.83 C
36 03-01-2011 07:05:05 -1.1 C 88 % -2.83 C
37 03-01-2011 07:17:03 -1.1 C 89 % -2.68 C
38 03-01-2011 07:29:03 -1.1 C 89 % -2.68 C
39 03-01-2011 07:41:03 -1 C 89 % -2.58 C
40 03-01-2011 07:53:02 -1.1 C 89 % -2.68 C
41 03-01-2011 08:05:03 -1.4 C 88 % -3.13 C
42 03-01-2011 08:17:02 -1.4 C 88 % -3.13 C
43 03-01-2011 08:29:02 -1.3 C 89 % -2.88 C
44 03-01-2011 08:41:02 -1.2 C 88 % -2.93 C
45 03-01-2011 08:53:02 -1.2 C 88 % -2.93 C
46 03-01-2011 09:05:02 -1.3 C 89 % -2.88 C
47 03-01-2011 09:17:01 -1.3 C 89 % -2.88 C
48 03-01-2011 09:29:01 -1.2 C 88 % -2.93 C
49 03-01-2011 09:41:02 -1.2 C 88 % -2.93 C
50 03-01-2011 09:53:02 -1.1 C 87 % -2.98 C
Sensor: Nr:Datum:Temp:Feuchte:Taupunkt:
Aussen-T/F 51 03-01-2011 10:05:03 -1.1 C 87 % -2.98 C
52 03-01-2011 10:17:02 -1.1 C 86 % -3.14 C
53 03-01-2011 10:29:02 -1.2 C 85 % -3.39 C
54 03-01-2011 10:41:02 -0.8 C 85 % -3 C
55 03-01-2011 10:53:02 -0.9 C 84 % -3.26 C
56 03-01-2011 11:05:02 -0.6 C 82 % -3.29 C
57 03-01-2011 11:17:01 -0.4 C 80 % -3.42 C
58 03-01-2011 11:29:01 -0.2 C 78 % -3.56 C
59 03-01-2011 11:41:02 -0.2 C 76 % -3.91 C
60 03-01-2011 11:53:02 -0.1 C 77 % -3.64 C
61 03-01-2011 12:05:02 0 C 76 % -3.71 C
62 03-01-2011 12:17:01 0.2 C 76 % -3.52 C
63 03-01-2011 12:29:01 0.3 C 76 % -3.42 C
64 03-01-2011 12:41:02 0.3 C 75 % -3.6 C
65 03-01-2011 12:53:01 0.5 C 75 % -3.4 C
66 03-01-2011 13:05:02 1 C 74 % -3.1 C
67 03-01-2011 13:17:02 0.9 C 74 % -3.2 C
68 03-01-2011 13:29:02 0.9 C 74 % -3.2 C
69 03-01-2011 13:41:02 1.1 C 73 % -3.19 C
70 03-01-2011 13:53:02 0.7 C 74 % -3.39 C
71 03-01-2011 14:05:01 0.8 C 75 % -3.11 C
72 03-01-2011 14:17:02 0.7 C 75 % -3.21 C
73 03-01-2011 14:29:03 0.7 C 76 % -3.03 C
74 03-01-2011 14:41:01 1.1 C 75 % -2.82 C
75 03-01-2011 14:53:02 1 C 74 % -3.1 C
Sensor: Nr:Datum:Temp:Feuchte:Taupunkt:
Aussen-T/F 76 03-01-2011 15:05:02 1 C 74 % -3.1 C
77 03-01-2011 15:17:02 0.4 C 76 % -3.32 C
78 03-01-2011 15:29:02 -0.1 C 78 % -3.47 C
79 03-01-2011 15:41:03 -0.6 C 79 % -3.78 C
80 03-01-2011 15:53:02 -1.1 C 81 % -3.94 C
81 03-01-2011 16:05:02 -1.3 C 82 % -3.97 C
82 03-01-2011 16:17:01 -1.5 C 83 % -4 C
83 03-01-2011 16:29:01 -2 C 83 % -4.49 C
84 03-01-2011 16:41:02 -1.7 C 85 % -3.88 C
85 03-01-2011 16:53:02 -1.2 C 86 % -3.24 C
86 03-01-2011 17:05:02 -1.9 C 86 % -3.92 C
87 03-01-2011 17:17:02 -2.6 C 86 % -4.61 C
88 03-01-2011 17:29:02 -2.5 C 86 % -4.51 C
89 03-01-2011 17:41:02 -2.9 C 87 % -4.76 C
90 03-01-2011 17:53:02 -2.4 C 87 % -4.26 C
91 03-01-2011 18:05:01 -1.7 C 88 % -3.42 C
92 03-01-2011 18:17:01 -1.4 C 89 % -2.97 C
93 03-01-2011 18:29:01 -1.3 C 89 % -2.88 C
94 03-01-2011 18:41:02 -1.1 C 89 % -2.68 C
95 03-01-2011 18:53:02 -1 C 89 % -2.58 C
96 03-01-2011 19:05:02 -1.1 C 89 % -2.68 C
97 03-01-2011 19:17:02 -1.1 C 89 % -2.68 C
98 03-01-2011 19:29:02 -1.1 C 90 % -2.53 C
99 03-01-2011 19:41:02 -1.2 C 90 % -2.63 C
100 03-01-2011 19:53:02 -1.6 C 89 % -3.17 C
Sensor: Nr:Datum:Temp:Feuchte:Taupunkt:
Aussen-T/F 101 03-01-2011 20:05:02 -2.1 C 89 % -3.66 C
102 03-01-2011 20:17:02 -2.3 C 89 % -3.86 C
103 03-01-2011 20:29:02 -1.8 C 89 % -3.37 C
104 03-01-2011 20:41:01 -1.8 C 90 % -3.22 C
105 03-01-2011 20:53:02 -2 C 89 % -3.57 C
106 03-01-2011 21:05:02 -2.3 C 89 % -3.86 C
107 03-01-2011 21:17:03 -2.7 C 89 % -4.26 C
108 03-01-2011 21:29:03 -3 C 89 % -4.55 C
109 03-01-2011 21:41:02 -2.5 C 89 % -4.06 C
110 03-01-2011 21:53:02 -2 C 90 % -3.42 C
111 03-01-2011 22:05:02 -1.7 C 90 % -3.12 C
112 03-01-2011 22:18:03 -1.4 C 90 % -2.82 C
113 03-01-2011 22:30:03 -1.5 C 90 % -2.92 C
114 03-01-2011 22:42:03 -1.6 C 90 % -3.02 C
115 03-01-2011 22:54:03 -1.8 C 90 % -3.22 C
116 03-01-2011 23:06:03 -2.4 C 90 % -3.81 C
117 03-01-2011 23:18:03 -2.9 C 90 % -4.31 C
118 03-01-2011 23:30:03 -3.1 C 90 % -4.5 C
119 03-01-2011 23:42:03 -3.2 C 90 % -4.6 C
120 03-01-2011 23:54:03 -3.4 C 89 % -4.95 C
121 04-01-2011 00:06:03 -3.4 C 90 % -4.8 C
122 04-01-2011 00:18:03 -3.4 C 90 % -4.8 C
123 04-01-2011 00:30:03 -3.8 C 90 % -5.2 C
124 04-01-2011 00:42:03 -3.8 C 90 % -5.2 C
125 04-01-2011 00:54:03 -3.8 C 90 % -5.2 C
Sensor: Nr:Datum:Temp:Feuchte:Taupunkt:
Aussen-T/F 126 04-01-2011 01:06:03 -3.4 C 90 % -4.8 C
127 04-01-2011 01:18:03 -3.9 C 90 % -5.29 C
128 04-01-2011 01:30:04 -4.3 C 89 % -5.84 C
129 04-01-2011 01:42:04 -4.2 C 89 % -5.74 C
130 04-01-2011 01:54:04 -3.9 C 90 % -5.29 C
131 04-01-2011 02:06:04 -3.4 C 90 % -4.8 C
132 04-01-2011 02:18:04 -3.4 C 90 % -4.8 C
133 04-01-2011 02:30:04 -3 C 90 % -4.4 C
134 04-01-2011 02:42:04 -3.4 C 90 % -4.8 C
135 04-01-2011 02:54:04 -3.3 C 90 % -4.7 C
136 04-01-2011 03:06:04 -3.2 C 90 % -4.6 C
137 04-01-2011 03:18:04 -3.4 C 89 % -4.95 C
138 04-01-2011 03:30:04 -3.2 C 89 % -4.75 C
139 04-01-2011 03:42:04 -3.1 C 90 % -4.5 C
140 04-01-2011 03:54:04 -3 C 90 % -4.4 C
141 04-01-2011 04:06:04 -3 C 90 % -4.4 C
142 04-01-2011 04:18:04 -3.2 C 89 % -4.75 C
143 04-01-2011 04:30:04 -3.5 C 89 % -5.05 C
144 04-01-2011 04:42:04 -3.7 C 89 % -5.24 C
145 04-01-2011 04:54:04 -3.8 C 89 % -5.34 C
146 04-01-2011 05:06:04 -3.5 C 89 % -5.05 C
147 04-01-2011 05:18:04 -3.4 C 89 % -4.95 C
148 04-01-2011 05:30:04 -3.5 C 89 % -5.05 C
149 04-01-2011 05:42:05 -4 C 88 % -5.69 C
150 04-01-2011 05:54:05 -4.3 C 88 % -5.98 C
Sensor: Nr:Datum:Temp:Feuchte:Taupunkt:
Aussen-T/F 151 04-01-2011 06:06:05 -4.5 C 88 % -6.18 C
152 04-01-2011 06:18:05 -4.3 C 88 % -5.98 C
153 04-01-2011 06:30:05 -4.1 C 88 % -5.79 C
154 04-01-2011 06:42:05 -3.2 C 89 % -4.75 C
155 04-01-2011 06:54:05 -3.1 C 89 % -4.65 C
156 04-01-2011 07:06:05 -2.9 C 89 % -4.45 C
157 04-01-2011 07:18:05 -2.9 C 89 % -4.45 C
158 04-01-2011 07:30:05 -2.7 C 89 % -4.26 C
159 04-01-2011 07:42:03 -2.6 C 89 % -4.16 C
160 04-01-2011 07:54:02 -2.5 C 89 % -4.06 C
161 04-01-2011 08:06:02 -2.3 C 90 % -3.71 C
162 04-01-2011 08:18:02 -2.2 C 90 % -3.61 C
163 04-01-2011 08:30:02 -2.1 C 90 % -3.52 C
164 04-01-2011 08:42:02 -2.1 C 90 % -3.52 C
165 04-01-2011 08:54:02 -2 C 90 % -3.42 C
166 04-01-2011 09:06:02 -2 C 90 % -3.42 C
167 04-01-2011 09:18:02 -1.9 C 90 % -3.32 C
168 04-01-2011 09:30:02 -1.8 C 90 % -3.22 C
169 04-01-2011 09:42:02 -1.9 C 90 % -3.32 C
170 04-01-2011 09:54:02 -1.8 C 90 % -3.22 C
171 04-01-2011 10:06:02 -1.4 C 90 % -2.82 C
172 04-01-2011 10:18:02 -1.4 C 90 % -2.82 C
173 04-01-2011 10:30:03 -1 C 90 % -2.43 C
174 04-01-2011 10:42:02 -0.7 C 90 % -2.13 C
175 04-01-2011 10:54:02 -0.6 C 90 % -2.03 C
Sensor: Nr:Datum:Temp:Feuchte:Taupunkt:
Aussen-T/F 176 04-01-2011 11:06:01 -0.4 C 89 % -1.99 C
177 04-01-2011 11:18:02 -0.3 C 89 % -1.89 C
178 04-01-2011 11:30:02 -0.7 C 87 % -2.59 C
179 04-01-2011 11:42:02 -0.3 C 84 % -2.67 C
180 04-01-2011 11:54:03 -0.4 C 81 % -3.25 C
181 04-01-2011 12:06:03 -0.4 C 77 % -3.93 C
182 04-01-2011 12:18:03 -0.2 C 74 % -4.26 C
183 04-01-2011 12:30:03 -0.2 C 72 % -4.63 C
184 04-01-2011 12:42:03 -0.3 C 71 % -4.91 C
185 04-01-2011 12:54:03 -0.2 C 70 % -5 C
186 04-01-2011 13:06:03 -0.2 C 70 % -5 C
187 04-01-2011 13:18:03 0 C 69 % -4.99 C
188 04-01-2011 13:30:03 0 C 70 % -4.8 C
189 04-01-2011 13:42:03 0.2 C 69 % -4.8 C
190 04-01-2011 13:54:03 0.5 C 70 % -4.32 C
191 04-01-2011 14:06:04 0.2 C 69 % -4.8 C
192 04-01-2011 14:18:04 0.2 C 68 % -4.99 C
193 04-01-2011 14:30:04 0.2 C 68 % -4.99 C
194 04-01-2011 14:42:04 0 C 68 % -5.18 C
195 04-01-2011 14:54:04 -0.3 C 69 % -5.29 C
196 04-01-2011 15:06:04 -0.4 C 70 % -5.19 C
197 04-01-2011 15:18:04 -0.9 C 70 % -5.67 C
198 04-01-2011 15:30:04 -1.1 C 72 % -5.5 C
199 04-01-2011 15:42:04 -1.1 C 73 % -5.31 C
200 04-01-2011 15:54:04 -1.1 C 73 % -5.31 C
Sensor: Nr:Datum:Temp:Feuchte:Taupunkt:
Aussen-T/F 201 04-01-2011 16:06:04 -1.1 C 73 % -5.31 C
202 04-01-2011 16:18:04 -1.1 C 73 % -5.31 C
203 04-01-2011 16:30:04 -1.2 C 73 % -5.41 C
204 04-01-2011 16:42:04 -1.2 C 73 % -5.41 C
205 04-01-2011 16:54:04 -1.3 C 73 % -5.51 C
206 04-01-2011 17:06:04 -1.5 C 74 % -5.52 C
207 04-01-2011 17:18:04 -1.9 C 75 % -5.73 C
208 04-01-2011 17:30:04 -2.3 C 76 % -5.95 C
209 04-01-2011 17:42:04 -2.2 C 78 % -5.51 C
210 04-01-2011 17:54:03 -2.1 C 78 % -5.41 C
211 04-01-2011 18:06:02 -2.1 C 77 % -5.58 C
212 04-01-2011 18:18:03 -2.2 C 77 % -5.68 C
213 04-01-2011 18:30:03 -2.1 C 77 % -5.58 C
214 04-01-2011 18:42:03 -2.3 C 76 % -5.95 C
215 04-01-2011 18:54:02 -2.4 C 76 % -6.04 C
216 04-01-2011 19:06:02 -2.7 C 76 % -6.33 C
217 04-01-2011 19:18:02 -3.4 C 77 % -6.84 C
218 04-01-2011 19:30:02 -3.8 C 78 % -7.06 C
219 04-01-2011 19:42:03 -4 C 79 % -7.09 C
220 04-01-2011 19:54:02 -3.9 C 80 % -6.83 C
221 04-01-2011 20:06:02 -3.7 C 80 % -6.64 C
222 04-01-2011 20:18:02 -4 C 80 % -6.93 C
223 04-01-2011 20:30:02 -4.2 C 80 % -7.13 C
224 04-01-2011 20:42:02 -4.4 C 80 % -7.32 C
225 04-01-2011 20:54:02 -4.7 C 80 % -7.61 C
Sensor: Nr:Datum:Temp:Feuchte:Taupunkt:
Aussen-T/F 226 04-01-2011 21:06:03 -4.8 C 80 % -7.71 C
227 04-01-2011 21:18:02 -4.1 C 82 % -6.71 C
228 04-01-2011 21:30:02 -3.5 C 82 % -6.12 C
229 04-01-2011 21:43:03 -3.2 C 79 % -6.32 C
230 04-01-2011 21:55:03 -3 C 76 % -6.63 C
231 04-01-2011 22:07:03 -2.9 C 74 % -6.87 C
232 04-01-2011 22:19:03 -2.8 C 72 % -7.13 C
233 04-01-2011 22:31:03 -2.8 C 72 % -7.13 C
234 04-01-2011 22:43:03 -2.8 C 71 % -7.31 C
235 04-01-2011 22:55:03 -2.8 C 71 % -7.31 C
236 04-01-2011 23:07:03 -2.8 C 71 % -7.31 C
237 04-01-2011 23:19:03 -2.8 C 71 % -7.31 C
238 04-01-2011 23:31:03 -2.8 C 71 % -7.31 C
239 04-01-2011 23:43:04 -2.8 C 71 % -7.31 C
240 04-01-2011 23:55:04 -2.9 C 72 % -7.23 C
241 05-01-2011 00:07:04 -2.8 C 72 % -7.13 C
242 05-01-2011 00:19:04 -2.8 C 72 % -7.13 C
243 05-01-2011 00:31:04 -2.9 C 73 % -7.05 C
244 05-01-2011 00:43:04 -2.9 C 73 % -7.05 C
245 05-01-2011 00:55:04 -3 C 73 % -7.15 C
246 05-01-2011 01:07:04 -3 C 72 % -7.33 C
247 05-01-2011 01:19:04 -3 C 70 % -7.69 C
248 05-01-2011 01:31:04 -2.9 C 69 % -7.78 C
249 05-01-2011 01:43:04 -3 C 68 % -8.06 C
250 05-01-2011 01:55:04 -3 C 69 % -7.88 C
Sensor: Nr:Datum:Temp:Feuchte:Taupunkt:
Aussen-T/F 251 05-01-2011 02:07:04 -3 C 70 % -7.69 C
252 05-01-2011 02:19:04 -2.9 C 69 % -7.78 C
253 05-01-2011 02:31:04 -2.9 C 69 % -7.78 C
254 05-01-2011 02:43:04 -2.9 C 70 % -7.59 C
255 05-01-2011 02:55:04 -2.9 C 70 % -7.59 C
256 05-01-2011 03:07:04 -3 C 70 % -7.69 C
257 05-01-2011 03:19:04 -3 C 71 % -7.51 C
258 05-01-2011 03:31:04 -2.9 C 70 % -7.59 C
259 05-01-2011 03:43:05 -2.9 C 70 % -7.59 C
260 05-01-2011 03:55:05 -3 C 69 % -7.88 C
261 05-01-2011 04:07:05 -3.2 C 68 % -8.25 C
262 05-01-2011 04:19:05 -3.4 C 68 % -8.45 C
263 05-01-2011 04:31:05 -3.7 C 67 % -8.92 C
264 05-01-2011 04:43:05 -3.7 C 67 % -8.92 C
265 05-01-2011 04:55:05 -3.8 C 67 % -9.02 C
266 05-01-2011 05:07:05 -3.9 C 68 % -8.93 C
267 05-01-2011 05:19:05 -3.9 C 69 % -8.74 C
268 05-01-2011 05:31:05 -4 C 69 % -8.83 C
269 05-01-2011 05:43:05 -4.1 C 69 % -8.93 C
270 05-01-2011 05:55:05 -4.4 C 68 % -9.4 C
271 05-01-2011 06:07:05 -4.5 C 68 % -9.5 C
272 05-01-2011 06:19:05 -4.7 C 68 % -9.69 C
273 05-01-2011 06:31:05 -4.8 C 69 % -9.6 C
274 05-01-2011 06:43:05 -5.2 C 69 % -9.99 C
275 05-01-2011 06:55:05 -5.2 C 70 % -9.8 C
Sensor: Nr:Datum:Temp:Feuchte:Taupunkt:
Aussen-T/F 276 05-01-2011 07:07:05 -5.3 C 70 % -9.9 C
277 05-01-2011 07:19:05 -5.7 C 70 % -10.29 C
278 05-01-2011 07:31:03 -6.1 C 70 % -10.67 C
279 05-01-2011 07:43:03 -6.2 C 72 % -10.41 C
280 05-01-2011 07:55:02 -6.9 C 72 % -11.09 C
281 05-01-2011 08:07:02 -7.1 C 74 % -10.94 C
282 05-01-2011 08:19:02 -7.2 C 75 % -10.87 C
283 05-01-2011 08:31:02 -7.4 C 76 % -10.89 C
284 05-01-2011 08:43:02 -7.6 C 77 % -10.92 C
285 05-01-2011 08:55:02 -8 C 77 % -11.31 C
286 05-01-2011 09:07:01 -7.5 C 78 % -10.66 C
287 05-01-2011 09:19:02 -7.4 C 78 % -10.57 C
288 05-01-2011 09:31:02 -6.6 C 78 % -9.79 C
289 05-01-2011 09:43:02 -6.1 C 78 % -9.3 C
290 05-01-2011 09:55:01 -5.6 C 76 % -9.15 C
291 05-01-2011 10:07:02 -5 C 73 % -9.08 C
292 05-01-2011 10:19:02 -4.7 C 70 % -9.32 C
293 05-01-2011 10:31:01 -4.2 C 67 % -9.4 C
294 05-01-2011 10:43:01 -3.9 C 66 % -9.31 C
295 05-01-2011 10:55:02 -3.5 C 64 % -9.32 C
296 05-01-2011 11:07:01 -3.3 C 63 % -9.33 C
297 05-01-2011 11:19:02 -2.8 C 61 % -9.26 C
298 05-01-2011 11:31:01 -3.4 C 61 % -9.83 C
299 05-01-2011 11:43:01 -3.5 C 61 % -9.92 C
300 05-01-2011 11:55:03 -3 C 61 % -9.45 C
Sensor: Nr:Datum:Temp:Feuchte:Taupunkt:
Aussen-T/F 301 05-01-2011 12:07:02 -3.2 C 59 % -10.06 C
302 05-01-2011 12:19:02 -3.7 C 62 % -9.91 C
303 05-01-2011 12:31:03 -3.8 C 63 % -9.8 C
304 05-01-2011 12:43:03 -3.9 C 64 % -9.7 C
305 05-01-2011 12:55:02 -3.8 C 65 % -9.4 C
306 05-01-2011 13:07:02 -3.7 C 66 % -9.11 C
307 05-01-2011 13:19:02 -3.6 C 64 % -9.41 C
308 05-01-2011 13:31:02 -3.7 C 64 % -9.51 C
309 05-01-2011 13:43:02 -4 C 66 % -9.4 C
310 05-01-2011 13:55:02 -3.8 C 66 % -9.21 C
311 05-01-2011 14:07:02 -3.7 C 66 % -9.11 C
312 05-01-2011 14:19:02 -3.3 C 66 % -8.73 C
313 05-01-2011 14:31:02 -3.3 C 66 % -8.73 C
314 05-01-2011 14:43:02 -3.3 C 66 % -8.73 C
315 05-01-2011 14:55:01 -3.3 C 66 % -8.73 C
316 05-01-2011 15:07:02 -3.6 C 67 % -8.83 C
317 05-01-2011 15:19:01 -3.8 C 68 % -8.83 C
318 05-01-2011 15:31:02 -3.8 C 70 % -8.46 C
319 05-01-2011 15:43:02 -3.7 C 70 % -8.36 C
320 05-01-2011 15:55:01 -3.8 C 69 % -8.64 C
321 05-01-2011 16:07:02 -3.9 C 69 % -8.74 C
322 05-01-2011 16:19:01 -4.2 C 71 % -8.66 C
323 05-01-2011 16:31:02 -4.5 C 72 % -8.77 C
324 05-01-2011 16:43:02 -4.8 C 74 % -8.71 C
325 05-01-2011 16:55:01 -4.8 C 75 % -8.54 C
Sensor: Nr:Datum:Temp:Feuchte:Taupunkt:
Aussen-T/F 326 05-01-2011 17:07:02 -5.1 C 76 % -8.66 C
327 05-01-2011 17:19:02 -5.8 C 77 % -9.17 C
328 05-01-2011 17:31:01 -6 C 78 % -9.2 C
329 05-01-2011 17:43:01 -5.8 C 79 % -8.85 C
330 05-01-2011 17:55:02 -5.8 C 80 % -8.69 C
331 05-01-2011 18:07:01 -5.7 C 80 % -8.59 C
332 05-01-2011 18:19:02 -6 C 80 % -8.88 C
333 05-01-2011 18:31:01 -6.1 C 80 % -8.98 C
334 05-01-2011 18:43:01 -5.5 C 81 % -8.24 C
335 05-01-2011 18:55:03 -5.2 C 81 % -7.94 C
336 05-01-2011 19:07:02 -5.4 C 80 % -8.3 C
337 05-01-2011 19:19:02 -4.3 C 81 % -7.06 C
338 05-01-2011 19:31:02 -3.4 C 80 % -6.35 C
339 05-01-2011 19:43:02 -3.2 C 78 % -6.48 C
340 05-01-2011 19:55:02 -3 C 77 % -6.45 C
341 05-01-2011 20:07:02 -2.8 C 77 % -6.26 C
342 05-01-2011 20:19:02 -2.8 C 77 % -6.26 C
343 05-01-2011 20:31:02 -2.7 C 77 % -6.16 C
344 05-01-2011 20:43:02 -2.5 C 75 % -6.31 C
345 05-01-2011 20:55:02 -2.5 C 75 % -6.31 C
346 05-01-2011 21:07:01 -2.4 C 76 % -6.04 C
347 05-01-2011 21:19:01 -1.8 C 74 % -5.81 C
348 05-01-2011 21:31:02 -1.5 C 73 % -5.7 C
349 05-01-2011 21:43:02 -1.4 C 74 % -5.42 C
350 05-01-2011 21:55:02 -1.3 C 75 % -5.15 C
Sensor: Nr:Datum:Temp:Feuchte:Taupunkt:
Aussen-T/F 351 05-01-2011 22:07:02 -1.3 C 76 % -4.98 C
352 05-01-2011 22:20:04 -1.2 C 77 % -4.71 C
353 05-01-2011 22:32:04 -1.1 C 78 % -4.44 C
354 05-01-2011 22:44:04 -1 C 79 % -4.17 C
355 05-01-2011 22:56:04 -0.7 C 79 % -3.88 C
356 05-01-2011 23:08:04 -0.5 C 80 % -3.52 C
357 05-01-2011 23:20:04 -0.3 C 80 % -3.32 C
358 05-01-2011 23:32:04 -0.3 C 80 % -3.32 C
359 05-01-2011 23:44:04 -0.8 C 81 % -3.64 C
360 05-01-2011 23:56:04 -0.9 C 82 % -3.58 C
361 06-01-2011 00:08:04 -0.7 C 83 % -3.22 C
362 06-01-2011 00:20:04 -0.5 C 82 % -3.19 C
363 06-01-2011 00:32:04 -0.5 C 82 % -3.19 C
364 06-01-2011 00:44:04 -0.6 C 82 % -3.29 C
365 06-01-2011 00:56:04 -0.6 C 82 % -3.29 C
366 06-01-2011 01:08:04 -0.5 C 83 % -3.03 C
367 06-01-2011 01:20:04 -0.3 C 83 % -2.83 C
368 06-01-2011 01:32:04 -0.3 C 83 % -2.83 C
369 06-01-2011 01:44:04 -0.1 C 83 % -2.63 C
370 06-01-2011 01:56:04 0.1 C 84 % -2.27 C
371 06-01-2011 02:08:04 0.2 C 85 % -2.02 C
372 06-01-2011 02:20:05 0.3 C 86 % -1.76 C
373 06-01-2011 02:32:05 0.3 C 87 % -1.6 C
374 06-01-2011 02:44:05 0.3 C 88 % -1.45 C
375 06-01-2011 02:56:05 0.4 C 88 % -1.35 C
Sensor: Nr:Datum:Temp:Feuchte:Taupunkt:
Aussen-T/F 376 06-01-2011 03:08:05 0.5 C 89 % -1.1 C
377 06-01-2011 03:20:05 0.5 C 89 % -1.1 C
378 06-01-2011 03:32:05 0.8 C 90 % -0.65 C
379 06-01-2011 03:44:05 0.7 C 90 % -0.75 C
380 06-01-2011 03:56:05 0.7 C 90 % -0.75 C
381 06-01-2011 04:08:05 0.8 C 91 % -0.5 C
382 06-01-2011 04:20:05 0.9 C 91 % -0.4 C
383 06-01-2011 04:32:05 0.9 C 91 % -0.4 C
384 06-01-2011 04:44:05 0.9 C 91 % -0.4 C
385 06-01-2011 04:56:05 0.9 C 91 % -0.4 C
386 06-01-2011 05:08:05 1 C 91 % -0.3 C
387 06-01-2011 05:20:05 1 C 91 % -0.3 C
388 06-01-2011 05:32:05 1 C 91 % -0.3 C
389 06-01-2011 05:44:05 1.1 C 91 % -0.2 C
390 06-01-2011 05:56:05 1.1 C 91 % -0.2 C
391 06-01-2011 06:08:05 1.3 C 92 % 0.15 C
392 06-01-2011 06:20:05 1.2 C 92 % 0.05 C
393 06-01-2011 06:32:06 1.2 C 92 % 0.05 C
394 06-01-2011 06:44:06 1.3 C 92 % 0.15 C
395 06-01-2011 06:56:02 1.3 C 92 % 0.15 C
396 06-01-2011 07:08:03 1.4 C 92 % 0.25 C
397 06-01-2011 07:20:02 1.4 C 92 % 0.25 C
398 06-01-2011 07:32:02 1.3 C 92 % 0.15 C
399 06-01-2011 07:44:02 1.4 C 92 % 0.25 C
400 06-01-2011 07:56:02 1.4 C 92 % 0.25 C
Sensor: Nr:Datum:Temp:Feuchte:Taupunkt:
Aussen-T/F 401 06-01-2011 08:08:02 1.4 C 92 % 0.25 C
402 06-01-2011 08:20:01 1.4 C 92 % 0.25 C
403 06-01-2011 08:32:02 1.5 C 92 % 0.35 C
404 06-01-2011 08:44:02 1.5 C 92 % 0.35 C
405 06-01-2011 08:56:02 1.9 C 93 % 0.89 C
406 06-01-2011 09:08:02 2 C 92 % 0.84 C
407 06-01-2011 09:20:01 2.2 C 92 % 1.04 C
408 06-01-2011 09:32:02 2.3 C 92 % 1.14 C
409 06-01-2011 09:44:02 2.5 C 92 % 1.34 C
410 06-01-2011 09:56:02 3.7 C 92 % 2.52 C
411 06-01-2011 10:08:03 3.8 C 93 % 2.77 C
412 06-01-2011 10:20:02 4.1 C 92 % 2.92 C
413 06-01-2011 10:32:02 4.4 C 92 % 3.22 C
414 06-01-2011 10:44:02 5.1 C 91 % 3.76 C
415 06-01-2011 10:56:01 5.1 C 91 % 3.76 C
416 06-01-2011 11:08:02 5.5 C 90 % 3.99 C
417 06-01-2011 11:20:01 5.9 C 88 % 4.07 C
418 06-01-2011 11:32:01 6.1 C 85 % 3.77 C
419 06-01-2011 11:44:01 6.3 C 84 % 3.8 C
420 06-01-2011 11:56:01 6.6 C 83 % 3.92 C
421 06-01-2011 12:08:01 5.5 C 81 % 2.51 C
422 06-01-2011 12:20:02 5.2 C 83 % 2.56 C
423 06-01-2011 12:32:01 5.6 C 84 % 3.12 C
424 06-01-2011 12:44:01 5.2 C 84 % 2.72 C
425 06-01-2011 12:56:03 5.2 C 85 % 2.89 C
Sensor: Nr:Datum:Temp:Feuchte:Taupunkt:
Aussen-T/F 426 06-01-2011 13:08:02 4.9 C 86 % 2.76 C
427 06-01-2011 13:20:02 4.8 C 87 % 2.82 C
428 06-01-2011 13:32:02 4.5 C 86 % 2.37 C
429 06-01-2011 13:44:02 4.2 C 87 % 2.23 C
430 06-01-2011 13:56:02 4.1 C 87 % 2.14 C
431 06-01-2011 14:08:01 4.3 C 87 % 2.33 C
432 06-01-2011 14:20:02 4.2 C 87 % 2.23 C
433 06-01-2011 14:32:02 4.3 C 87 % 2.33 C
434 06-01-2011 14:44:02 4 C 87 % 2.04 C
435 06-01-2011 14:56:02 3.8 C 88 % 2 C
436 06-01-2011 15:08:03 3.9 C 89 % 2.26 C
437 06-01-2011 15:20:02 3.8 C 89 % 2.16 C
438 06-01-2011 15:32:02 4 C 88 % 2.2 C
439 06-01-2011 15:44:02 4 C 89 % 2.36 C
440 06-01-2011 15:56:01 4 C 89 % 2.36 C
441 06-01-2011 16:08:02 4 C 89 % 2.36 C
442 06-01-2011 16:20:01 4.2 C 89 % 2.55 C
443 06-01-2011 16:32:01 4 C 89 % 2.36 C
444 06-01-2011 16:44:01 3.7 C 90 % 2.22 C
445 06-01-2011 16:56:01 3.7 C 90 % 2.22 C
446 06-01-2011 17:08:02 3.8 C 90 % 2.31 C
447 06-01-2011 17:20:02 4 C 90 % 2.51 C
448 06-01-2011 17:32:01 4.2 C 90 % 2.71 C
449 06-01-2011 17:44:01 4.1 C 90 % 2.61 C
450 06-01-2011 17:56:01 4.6 C 91 % 3.26 C
Sensor: Nr:Datum:Temp:Feuchte:Taupunkt:
Aussen-T/F 451 06-01-2011 18:08:01 4.6 C 91 % 3.26 C
452 06-01-2011 18:20:02 4.3 C 91 % 2.96 C
453 06-01-2011 18:32:01 4.6 C 91 % 3.26 C
454 06-01-2011 18:44:01 4.5 C 91 % 3.16 C
455 06-01-2011 18:56:02 5 C 91 % 3.66 C
456 06-01-2011 19:08:02 4.7 C 92 % 3.51 C
457 06-01-2011 19:20:02 4.6 C 92 % 3.42 C
458 06-01-2011 19:32:03 4.9 C 92 % 3.71 C
459 06-01-2011 19:44:03 5.3 C 91 % 3.95 C
460 06-01-2011 19:56:02 5.6 C 91 % 4.25 C
461 06-01-2011 20:08:01 7 C 91 % 5.63 C
462 06-01-2011 20:20:01 8 C 90 % 6.46 C
463 06-01-2011 20:32:02 6.7 C 91 % 5.34 C
464 06-01-2011 20:44:02 8.1 C 89 % 6.4 C
465 06-01-2011 20:56:02 7 C 89 % 5.31 C
466 06-01-2011 21:08:02 7.3 C 89 % 5.61 C
467 06-01-2011 21:20:02 8.2 C 88 % 6.33 C
468 06-01-2011 21:32:02 9 C 86 % 6.79 C
469 06-01-2011 21:44:02 8.9 C 84 % 6.35 C
470 06-01-2011 21:56:02 9.4 C 82 % 6.49 C
471 06-01-2011 22:08:03 9.2 C 80 % 5.94 C
472 06-01-2011 22:21:04 10 C 77 % 6.16 C
473 06-01-2011 22:33:04 9.8 C 79 % 6.34 C
474 06-01-2011 22:45:04 9.1 C 78 % 5.47 C
475 06-01-2011 22:57:04 9.4 C 78 % 5.76 C
Sensor: Nr:Datum:Temp:Feuchte:Taupunkt:
Aussen-T/F 476 06-01-2011 23:09:04 8.8 C 77 % 5 C
477 06-01-2011 23:21:04 9.1 C 77 % 5.29 C
478 06-01-2011 23:33:04 9 C 81 % 5.92 C
479 06-01-2011 23:45:04 9.7 C 81 % 6.6 C
480 06-01-2011 23:57:04 8.8 C 79 % 5.36 C
481 07-01-2011 00:09:04 8.5 C 80 % 5.25 C
482 07-01-2011 00:21:04 7.6 C 82 % 4.73 C
483 07-01-2011 00:33:04 7 C 84 % 4.49 C
484 07-01-2011 00:45:04 7.3 C 86 % 5.12 C
485 07-01-2011 00:57:04 6.5 C 86 % 4.33 C
486 07-01-2011 01:09:04 6.4 C 87 % 4.4 C
487 07-01-2011 01:21:04 6.5 C 87 % 4.5 C
488 07-01-2011 01:33:04 6.8 C 88 % 4.96 C
489 07-01-2011 01:45:05 6.9 C 89 % 5.22 C
490 07-01-2011 01:57:05 6.6 C 89 % 4.92 C
491 07-01-2011 02:09:05 6 C 89 % 4.33 C
492 07-01-2011 02:21:05 5.8 C 90 % 4.29 C
493 07-01-2011 02:33:05 5.7 C 90 % 4.19 C
494 07-01-2011 02:45:05 5.8 C 90 % 4.29 C
495 07-01-2011 02:57:05 5.8 C 91 % 4.45 C
496 07-01-2011 03:09:05 5.7 C 91 % 4.35 C
497 07-01-2011 03:21:05 5.6 C 91 % 4.25 C
498 07-01-2011 03:33:05 5.6 C 91 % 4.25 C
499 07-01-2011 03:45:05 5.6 C 91 % 4.25 C
500 07-01-2011 03:57:05 5.6 C 91 % 4.25 C
Sensor: Nr:Datum:Temp:Feuchte:Taupunkt:
Aussen-T/F 501 07-01-2011 04:09:05 5.6 C 91 % 4.25 C
502 07-01-2011 04:21:05 5.5 C 91 % 4.15 C
503 07-01-2011 04:33:05 5.2 C 91 % 3.85 C
504 07-01-2011 04:45:05 5.2 C 91 % 3.85 C
505 07-01-2011 04:57:05 5.3 C 91 % 3.95 C
506 07-01-2011 05:09:05 5.6 C 92 % 4.41 C
507 07-01-2011 05:21:05 5.2 C 91 % 3.85 C
508 07-01-2011 05:33:05 5.3 C 92 % 4.11 C
509 07-01-2011 05:45:05 5.2 C 92 % 4.01 C
510 07-01-2011 05:57:06 5.1 C 91 % 3.76 C
511 07-01-2011 06:09:06 4.8 C 92 % 3.61 C
512 07-01-2011 06:21:06 4.9 C 92 % 3.71 C
513 07-01-2011 06:33:06 5 C 91 % 3.66 C
514 07-01-2011 06:45:06 5 C 91 % 3.66 C
515 07-01-2011 06:57:06 4.8 C 92 % 3.61 C
516 07-01-2011 07:09:06 5 C 92 % 3.81 C
517 07-01-2011 07:21:06 5 C 92 % 3.81 C
518 07-01-2011 07:33:06 5 C 92 % 3.81 C
519 07-01-2011 07:45:03 5.1 C 92 % 3.91 C
520 07-01-2011 07:57:03 5.1 C 92 % 3.91 C
521 07-01-2011 08:09:02 4.8 C 92 % 3.61 C
522 07-01-2011 08:21:03 4.9 C 92 % 3.71 C
523 07-01-2011 08:33:02 5 C 92 % 3.81 C
524 07-01-2011 08:45:03 4.9 C 92 % 3.71 C
525 07-01-2011 08:57:03 4.8 C 92 % 3.61 C
Sensor: Nr:Datum:Temp:Feuchte:Taupunkt:
Aussen-T/F 526 07-01-2011 09:09:02 4.7 C 92 % 3.51 C
527 07-01-2011 09:21:02 4.7 C 92 % 3.51 C
528 07-01-2011 09:33:02 4.9 C 92 % 3.71 C
529 07-01-2011 09:45:02 5 C 92 % 3.81 C
530 07-01-2011 09:57:02 5.2 C 92 % 4.01 C
531 07-01-2011 10:09:02 5.3 C 92 % 4.11 C
532 07-01-2011 10:21:03 5.3 C 92 % 4.11 C
533 07-01-2011 10:33:02 5.6 C 92 % 4.41 C
534 07-01-2011 10:45:03 5.6 C 91 % 4.25 C
535 07-01-2011 10:57:03 5.7 C 91 % 4.35 C
536 07-01-2011 11:09:02 6 C 91 % 4.65 C
537 07-01-2011 11:21:02 6.7 C 91 % 5.34 C
538 07-01-2011 11:33:02 7.1 C 91 % 5.73 C
539 07-01-2011 11:45:02 7 C 91 % 5.63 C
540 07-01-2011 11:57:02 7 C 91 % 5.63 C
541 07-01-2011 12:09:02 7.2 C 91 % 5.83 C
542 07-01-2011 12:21:02 7.2 C 90 % 5.67 C
543 07-01-2011 12:33:02 7.3 C 90 % 5.77 C
544 07-01-2011 12:45:02 7.3 C 90 % 5.77 C
545 07-01-2011 12:57:02 7.4 C 90 % 5.87 C
546 07-01-2011 13:09:01 7.5 C 90 % 5.97 C
547 07-01-2011 13:21:01 7.4 C 90 % 5.87 C
548 07-01-2011 13:33:02 7.3 C 90 % 5.77 C
549 07-01-2011 13:45:02 7.4 C 89 % 5.71 C
550 07-01-2011 13:57:02 7.3 C 89 % 5.61 C
Sensor: Nr:Datum:Temp:Feuchte:Taupunkt:
Aussen-T/F 551 07-01-2011 14:09:02 7.4 C 89 % 5.71 C
552 07-01-2011 14:21:02 7.5 C 89 % 5.81 C
553 07-01-2011 14:33:02 7.5 C 90 % 5.97 C
554 07-01-2011 14:45:02 7.4 C 90 % 5.87 C
555 07-01-2011 14:57:02 7.3 C 90 % 5.77 C
556 07-01-2011 15:09:02 7.3 C 90 % 5.77 C
557 07-01-2011 15:21:02 7.3 C 90 % 5.77 C
558 07-01-2011 15:33:02 7.1 C 90 % 5.57 C
559 07-01-2011 15:45:02 7.1 C 90 % 5.57 C
560 07-01-2011 15:57:02 7.1 C 90 % 5.57 C
561 07-01-2011 16:09:02 6.9 C 91 % 5.54 C
562 07-01-2011 16:21:02 7.2 C 90 % 5.67 C
563 07-01-2011 16:33:03 7.1 C 90 % 5.57 C
564 07-01-2011 16:45:02 7 C 90 % 5.48 C
565 07-01-2011 16:57:02 7.1 C 90 % 5.57 C
566 07-01-2011 17:09:03 7.3 C 91 % 5.93 C
567 07-01-2011 17:21:02 7.3 C 91 % 5.93 C
568 07-01-2011 17:33:02 7.5 C 91 % 6.13 C
569 07-01-2011 17:45:01 7.7 C 91 % 6.33 C
570 07-01-2011 17:57:01 7.8 C 91 % 6.43 C
571 07-01-2011 18:09:02 8.3 C 91 % 6.92 C
572 07-01-2011 18:21:01 9.3 C 90 % 7.75 C
573 07-01-2011 18:33:01 9.3 C 90 % 7.75 C
574 07-01-2011 18:45:01 10 C 89 % 8.27 C
575 07-01-2011 18:57:01 9.7 C 89 % 7.98 C
Sensor: Nr:Datum:Temp:Feuchte:Taupunkt:
Aussen-T/F 576 07-01-2011 19:09:01 10.3 C 87 % 8.23 C
577 07-01-2011 19:21:02 9.8 C 86 % 7.57 C
578 07-01-2011 19:33:01 9.6 C 86 % 7.38 C
579 07-01-2011 19:45:03 8.9 C 86 % 6.69 C
580 07-01-2011 19:57:03 8.6 C 87 % 6.56 C
581 07-01-2011 20:09:03 8.5 C 88 % 6.63 C
582 07-01-2011 20:21:02 8.9 C 89 % 7.19 C
583 07-01-2011 20:33:03 9.2 C 89 % 7.48 C
584 07-01-2011 20:45:02 9 C 89 % 7.29 C
585 07-01-2011 20:57:03 8.9 C 89 % 7.19 C
586 07-01-2011 21:09:01 8.9 C 89 % 7.19 C
587 07-01-2011 21:21:02 8.9 C 90 % 7.35 C
588 07-01-2011 21:33:02 9 C 89 % 7.29 C
589 07-01-2011 21:45:02 9.1 C 89 % 7.39 C
590 07-01-2011 21:57:02 9.1 C 89 % 7.39 C
591 07-01-2011 22:09:02 9 C 88 % 7.12 C
592 07-01-2011 22:22:03 8.8 C 89 % 7.09 C
593 07-01-2011 22:34:03 8.6 C 89 % 6.89 C
594 07-01-2011 22:46:03 8.5 C 88 % 6.63 C
595 07-01-2011 22:58:03 8.6 C 89 % 6.89 C
596 07-01-2011 23:10:03 8.6 C 89 % 6.89 C
597 07-01-2011 23:22:03 8.5 C 89 % 6.79 C
598 07-01-2011 23:34:03 8.8 C 89 % 7.09 C
599 07-01-2011 23:46:03 8.9 C 89 % 7.19 C
600 07-01-2011 23:58:03 9 C 88 % 7.12 C
Sensor: Nr:Datum:Temp:Feuchte:Taupunkt:
Aussen-T/F 601 08-01-2011 00:10:03 9.2 C 87 % 7.15 C
602 08-01-2011 00:22:03 8.9 C 87 % 6.86 C
603 08-01-2011 00:34:03 8.7 C 87 % 6.66 C
604 08-01-2011 00:46:03 8.3 C 87 % 6.27 C
605 08-01-2011 00:58:03 8.1 C 87 % 6.07 C
606 08-01-2011 01:10:03 8 C 88 % 6.14 C
607 08-01-2011 01:22:03 7.7 C 89 % 6 C
608 08-01-2011 01:34:03 7.5 C 89 % 5.81 C
609 08-01-2011 01:46:03 7.1 C 89 % 5.41 C
610 08-01-2011 01:58:04 7 C 89 % 5.31 C
611 08-01-2011 02:10:04 6.9 C 90 % 5.38 C
612 08-01-2011 02:22:04 6.6 C 90 % 5.08 C
613 08-01-2011 02:34:04 6.7 C 91 % 5.34 C
614 08-01-2011 02:46:04 6.6 C 91 % 5.24 C
615 08-01-2011 02:58:04 6.8 C 91 % 5.44 C
616 08-01-2011 03:10:04 7 C 91 % 5.63 C
617 08-01-2011 03:22:04 7.9 C 92 % 6.68 C
618 08-01-2011 03:34:04 8.1 C 91 % 6.72 C
619 08-01-2011 03:46:04 8.5 C 91 % 7.12 C
620 08-01-2011 03:58:04 8.1 C 91 % 6.72 C
621 08-01-2011 04:10:04 7.9 C 92 % 6.68 C
622 08-01-2011 04:22:04 8.2 C 91 % 6.82 C
623 08-01-2011 04:34:04 8.1 C 91 % 6.72 C
624 08-01-2011 04:46:04 7.9 C 92 % 6.68 C
625 08-01-2011 04:58:04 7.3 C 92 % 6.09 C
Sensor: Nr:Datum:Temp:Feuchte:Taupunkt:
Aussen-T/F 626 08-01-2011 05:10:04 7.5 C 92 % 6.29 C
627 08-01-2011 05:22:04 8 C 91 % 6.62 C
628 08-01-2011 05:34:04 7.9 C 92 % 6.68 C
629 08-01-2011 05:46:04 8.1 C 92 % 6.88 C
630 08-01-2011 05:58:05 8.2 C 92 % 6.98 C
631 08-01-2011 06:10:05 8.2 C 92 % 6.98 C
632 08-01-2011 06:22:05 8.2 C 92 % 6.98 C
633 08-01-2011 06:34:05 8 C 92 % 6.78 C
634 08-01-2011 06:46:05 7.8 C 93 % 6.74 C
635 08-01-2011 06:58:05 7.7 C 93 % 6.64 C
636 08-01-2011 07:10:05 8 C 92 % 6.78 C
637 08-01-2011 07:22:05 8 C 92 % 6.78 C
638 08-01-2011 07:34:05 7.9 C 93 % 6.84 C
639 08-01-2011 07:46:05 8.3 C 92 % 7.08 C
640 08-01-2011 07:58:05 8.6 C 92 % 7.38 C
641 08-01-2011 08:10:05 8.5 C 92 % 7.28 C
642 08-01-2011 08:22:05 8.2 C 92 % 6.98 C
643 08-01-2011 08:34:05 7.9 C 93 % 6.84 C
644 08-01-2011 08:46:02 8.3 C 92 % 7.08 C
645 08-01-2011 08:58:02 8.8 C 93 % 7.73 C
646 08-01-2011 09:10:02 8.9 C 92 % 7.67 C
647 08-01-2011 09:22:02 9.1 C 91 % 7.71 C
648 08-01-2011 09:34:02 8.7 C 92 % 7.47 C
649 08-01-2011 09:46:02 8.5 C 92 % 7.28 C
650 08-01-2011 09:58:02 8.3 C 92 % 7.08 C
Sensor: Nr:Datum:Temp:Feuchte:Taupunkt:
Aussen-T/F 651 08-01-2011 10:10:01 8 C 92 % 6.78 C
652 08-01-2011 10:22:02 7.7 C 92 % 6.48 C
653 08-01-2011 10:34:01 7.6 C 92 % 6.39 C
654 08-01-2011 10:46:02 7.6 C 92 % 6.39 C
655 08-01-2011 10:58:03 8 C 91 % 6.62 C
656 08-01-2011 11:10:02 8.6 C 91 % 7.22 C
657 08-01-2011 11:22:02 9.3 C 90 % 7.75 C
658 08-01-2011 11:34:03 10.2 C 85 % 7.79 C
659 08-01-2011 11:46:02 10.9 C 80 % 7.59 C
660 08-01-2011 11:58:02 12 C 68 % 6.29 C
661 08-01-2011 12:10:02 12.1 C 65 % 5.73 C
662 08-01-2011 12:22:01 12.7 C 59 % 4.9 C
663 08-01-2011 12:34:02 13.1 C 56 % 4.53 C
664 08-01-2011 12:46:02 13.8 C 55 % 4.93 C
665 08-01-2011 12:58:02 13.8 C 54 % 4.66 C
666 08-01-2011 13:10:02 13.9 C 53 % 4.49 C
667 08-01-2011 13:22:01 14 C 52 % 4.31 C
668 08-01-2011 13:34:02 14.1 C 49 % 3.56 C
669 08-01-2011 13:46:02 14.4 C 48 % 3.54 C
670 08-01-2011 13:58:02 14.5 C 47 % 3.34 C
671 08-01-2011 14:10:02 14.5 C 47 % 3.34 C
672 08-01-2011 14:22:02 14.7 C 46 % 3.22 C
673 08-01-2011 14:34:02 14.5 C 47 % 3.34 C
674 08-01-2011 14:46:02 14.3 C 48 % 3.45 C
675 08-01-2011 14:58:02 14 C 49 % 3.47 C
Sensor: Nr:Datum:Temp:Feuchte:Taupunkt:
Aussen-T/F 676 08-01-2011 15:10:02 14.3 C 48 % 3.45 C
677 08-01-2011 15:22:02 14 C 50 % 3.75 C
678 08-01-2011 15:34:01 14 C 48 % 3.18 C
679 08-01-2011 15:46:02 14.2 C 47 % 3.06 C
680 08-01-2011 15:58:02 14.1 C 48 % 3.27 C
681 08-01-2011 16:10:01 14 C 48 % 3.18 C
682 08-01-2011 16:22:02 13.8 C 50 % 3.57 C
683 08-01-2011 16:34:02 12.8 C 54 % 3.74 C
684 08-01-2011 16:46:02 13.7 C 49 % 3.19 C
685 08-01-2011 16:58:02 13.7 C 48 % 2.9 C
686 08-01-2011 17:10:02 13.2 C 51 % 3.3 C
687 08-01-2011 17:22:02 13.4 C 51 % 3.48 C
688 08-01-2011 17:34:02 13.3 C 52 % 3.66 C
689 08-01-2011 17:46:01 13.5 C 50 % 3.29 C
690 08-01-2011 17:58:01 13 C 52 % 3.39 C
691 08-01-2011 18:10:02 13.5 C 51 % 3.57 C
692 08-01-2011 18:22:01 13.2 C 51 % 3.3 C
693 08-01-2011 18:34:01 13.7 C 49 % 3.19 C
694 08-01-2011 18:46:01 13.5 C 50 % 3.29 C
695 08-01-2011 18:58:01 13.3 C 51 % 3.39 C
696 08-01-2011 19:10:02 13 C 53 % 3.66 C
697 08-01-2011 19:22:01 13.1 C 52 % 3.48 C
698 08-01-2011 19:34:01 13.3 C 51 % 3.39 C
699 08-01-2011 19:46:01 13.2 C 51 % 3.3 C
700 08-01-2011 19:58:01 13.2 C 52 % 3.57 C
Sensor: Nr:Datum:Temp:Feuchte:Taupunkt:
Aussen-T/F 701 08-01-2011 20:10:02 13.2 C 52 % 3.57 C
702 08-01-2011 20:22:02 12.7 C 55 % 3.9 C
703 08-01-2011 20:34:01 11.8 C 62 % 4.77 C
704 08-01-2011 20:46:02 12.1 C 61 % 4.82 C
705 08-01-2011 20:58:02 11.8 C 62 % 4.77 C
706 08-01-2011 21:10:01 11.4 C 64 % 4.84 C
707 08-01-2011 21:22:02 11.8 C 63 % 5 C
708 08-01-2011 21:34:01 12.2 C 61 % 4.91 C
709 08-01-2011 21:46:02 12.5 C 62 % 5.43 C
710 08-01-2011 21:58:02 12.3 C 59 % 4.53 C
711 08-01-2011 22:10:03 12.5 C 58 % 4.47 C
712 08-01-2011 22:22:02 12.3 C 58 % 4.28 C
713 08-01-2011 22:35:03 11.8 C 63 % 5 C
714 08-01-2011 22:47:03 12.2 C 61 % 4.91 C
715 08-01-2011 22:59:03 10.9 C 69 % 5.44 C
716 08-01-2011 23:11:03 10.5 C 72 % 5.67 C
717 08-01-2011 23:23:03 10.6 C 73 % 5.97 C
718 08-01-2011 23:35:03 10.3 C 75 % 6.07 C
719 08-01-2011 23:47:03 10.2 C 75 % 5.97 C
720 08-01-2011 23:59:03 10 C 77 % 6.16 C
721 09-01-2011 00:11:03 9.8 C 80 % 6.52 C
722 09-01-2011 00:23:04 9.7 C 82 % 6.78 C
723 09-01-2011 00:35:04 9.6 C 84 % 7.03 C
724 09-01-2011 00:47:04 9.6 C 85 % 7.21 C
725 09-01-2011 00:59:04 9.5 C 86 % 7.28 C
Sensor: Nr:Datum:Temp:Feuchte:Taupunkt:
Aussen-T/F 726 09-01-2011 01:11:04 9.5 C 87 % 7.45 C
727 09-01-2011 01:23:04 9.7 C 87 % 7.64 C
728 09-01-2011 01:35:04 9.6 C 87 % 7.55 C
729 09-01-2011 01:47:04 9.7 C 87 % 7.64 C
730 09-01-2011 01:59:04 9.6 C 87 % 7.55 C
731 09-01-2011 02:11:04 9.8 C 87 % 7.74 C
732 09-01-2011 02:23:04 10 C 85 % 7.6 C
733 09-01-2011 02:35:04 9.8 C 86 % 7.57 C
734 09-01-2011 02:47:04 9.7 C 85 % 7.3 C
735 09-01-2011 02:59:04 9.6 C 85 % 7.21 C
736 09-01-2011 03:11:04 9.5 C 86 % 7.28 C
737 09-01-2011 03:23:04 9.4 C 86 % 7.18 C
738 09-01-2011 03:35:04 9.2 C 86 % 6.98 C
739 09-01-2011 03:47:04 9.2 C 87 % 7.15 C
740 09-01-2011 03:59:04 9.3 C 87 % 7.25 C
741 09-01-2011 04:11:04 9.7 C 86 % 7.47 C
742 09-01-2011 04:23:05 10.8 C 80 % 7.49 C
743 09-01-2011 04:35:05 11 C 75 % 6.75 C
744 09-01-2011 04:47:05 11.5 C 70 % 6.23 C
745 09-01-2011 04:59:05 11.6 C 70 % 6.32 C
746 09-01-2011 05:11:05 11.8 C 69 % 6.31 C
747 09-01-2011 05:23:05 11.5 C 70 % 6.23 C
748 09-01-2011 05:35:05 11.7 C 69 % 6.21 C
749 09-01-2011 05:47:05 11.1 C 71 % 6.05 C
750 09-01-2011 05:59:05 9.3 C 74 % 4.91 C
Sensor: Nr:Datum:Temp:Feuchte:Taupunkt:
Aussen-T/F 751 09-01-2011 06:11:05 8 C 78 % 4.41 C
752 09-01-2011 06:23:05 7.5 C 81 % 4.46 C
753 09-01-2011 06:35:05 7.2 C 83 % 4.51 C
754 09-01-2011 06:47:05 7 C 85 % 4.66 C
755 09-01-2011 06:59:05 6.8 C 87 % 4.79 C
756 09-01-2011 07:11:05 6.6 C 87 % 4.6 C
757 09-01-2011 07:23:05 6.4 C 87 % 4.4 C
758 09-01-2011 07:35:05 6.2 C 87 % 4.2 C
759 09-01-2011 07:47:05 5.8 C 88 % 3.97 C
760 09-01-2011 07:59:05 5.6 C 88 % 3.77 C
761 09-01-2011 08:11:05 5.5 C 88 % 3.67 C
762 09-01-2011 08:23:05 5.3 C 88 % 3.48 C
763 09-01-2011 08:35:06 5.3 C 88 % 3.48 C
764 09-01-2011 08:47:02 5 C 88 % 3.18 C
765 09-01-2011 08:59:03 4.7 C 88 % 2.89 C
766 09-01-2011 09:11:02 4.3 C 87 % 2.33 C
767 09-01-2011 09:23:02 4.3 C 86 % 2.17 C
768 09-01-2011 09:35:03 4 C 86 % 1.88 C
769 09-01-2011 09:47:01 3.8 C 87 % 1.84 C
770 09-01-2011 09:59:01 3.5 C 87 % 1.55 C
771 09-01-2011 10:11:02 3 C 87 % 1.05 C
772 09-01-2011 10:23:01 2.9 C 87 % 0.96 C
773 09-01-2011 10:35:01 2.8 C 87 % 0.86 C
774 09-01-2011 10:47:01 3 C 87 % 1.05 C
775 09-01-2011 10:59:01 3.4 C 87 % 1.45 C
Sensor: Nr:Datum:Temp:Feuchte:Taupunkt:
Aussen-T/F 776 09-01-2011 11:11:01 3.9 C 88 % 2.1 C
777 09-01-2011 11:23:02 4.1 C 86 % 1.97 C
778 09-01-2011 11:35:01 4.1 C 85 % 1.81 C
779 09-01-2011 11:47:02 4.1 C 84 % 1.65 C
780 09-01-2011 11:59:02 4.3 C 84 % 1.84 C
781 09-01-2011 12:11:01 4.3 C 83 % 1.67 C
782 09-01-2011 12:23:02 4.5 C 82 % 1.7 C
783 09-01-2011 12:35:01 4.6 C 81 % 1.63 C
784 09-01-2011 12:47:02 4.8 C 81 % 1.82 C
785 09-01-2011 12:59:02 4.6 C 81 % 1.63 C
786 09-01-2011 13:11:02 4.8 C 81 % 1.82 C
787 09-01-2011 13:23:02 5.1 C 78 % 1.59 C
788 09-01-2011 13:35:02 5.1 C 78 % 1.59 C
789 09-01-2011 13:47:02 5.2 C 76 % 1.32 C
790 09-01-2011 13:59:02 5.2 C 77 % 1.51 C
791 09-01-2011 14:11:01 5.2 C 76 % 1.32 C
792 09-01-2011 14:23:01 5.3 C 76 % 1.42 C
793 09-01-2011 14:35:02 5.3 C 76 % 1.42 C
794 09-01-2011 14:47:02 5.2 C 77 % 1.51 C
795 09-01-2011 14:59:02 5.2 C 76 % 1.32 C
796 09-01-2011 15:11:02 5 C 79 % 1.67 C
797 09-01-2011 15:23:02 4.8 C 82 % 1.99 C
798 09-01-2011 15:35:02 4.6 C 83 % 1.97 C
799 09-01-2011 15:47:02 4.4 C 83 % 1.77 C
800 09-01-2011 15:59:02 4.1 C 84 % 1.65 C
Sensor: Nr:Datum:Temp:Feuchte:Taupunkt:
Aussen-T/F 801 09-01-2011 16:11:02 3.8 C 86 % 1.68 C
802 09-01-2011 16:23:02 3.4 C 87 % 1.45 C
803 09-01-2011 16:35:02 3.2 C 87 % 1.25 C
804 09-01-2011 16:47:02 3 C 88 % 1.21 C
805 09-01-2011 16:59:02 2.9 C 89 % 1.27 C
806 09-01-2011 17:11:02 3.2 C 89 % 1.57 C
807 09-01-2011 17:23:02 2.9 C 89 % 1.27 C
808 09-01-2011 17:35:02 2.7 C 89 % 1.07 C
809 09-01-2011 17:47:02 2.6 C 90 % 1.13 C
810 09-01-2011 17:59:02 2.5 C 90 % 1.03 C
811 09-01-2011 18:11:02 2.2 C 90 % 0.73 C
812 09-01-2011 18:23:03 1.9 C 91 % 0.59 C
813 09-01-2011 18:35:02 1.7 C 91 % 0.39 C
814 09-01-2011 18:47:02 1.5 C 91 % 0.19 C
815 09-01-2011 18:59:02 1.5 C 91 % 0.19 C
816 09-01-2011 19:11:02 1.6 C 92 % 0.44 C
817 09-01-2011 19:23:02 1.7 C 92 % 0.54 C
818 09-01-2011 19:35:02 2 C 92 % 0.84 C
819 09-01-2011 19:47:02 1.9 C 92 % 0.74 C
820 09-01-2011 19:59:02 1.8 C 92 % 0.64 C
821 09-01-2011 20:11:02 1.4 C 92 % 0.25 C
822 09-01-2011 20:23:02 1.5 C 92 % 0.35 C
823 09-01-2011 20:35:02 1.5 C 92 % 0.35 C
824 09-01-2011 20:47:02 1 C 91 % -0.3 C
825 09-01-2011 20:59:02 0.8 C 92 % -0.35 C
Sensor: Nr:Datum:Temp:Feuchte:Taupunkt:
Aussen-T/F 826 09-01-2011 21:11:02 0.5 C 92 % -0.65 C
827 09-01-2011 21:23:02 0.3 C 92 % -0.84 C
828 09-01-2011 21:35:01 0.9 C 93 % -0.1 C
829 09-01-2011 21:47:02 0.8 C 92 % -0.35 C
830 09-01-2011 21:59:02 0.7 C 93 % -0.3 C
831 09-01-2011 22:11:02 0.2 C 92 % -0.94 C
832 09-01-2011 22:23:02 0.3 C 93 % -0.7 C
833 09-01-2011 22:36:02 0 C 92 % -1.14 C
834 09-01-2011 22:48:02 -0.2 C 92 % -1.34 C
835 09-01-2011 23:00:02 0.1 C 93 % -0.89 C
836 09-01-2011 23:12:02 0.2 C 93 % -0.79 C
837 09-01-2011 23:24:02 -0.3 C 93 % -1.29 C
838 09-01-2011 23:36:02 0.1 C 93 % -0.89 C
839 09-01-2011 23:48:02 0 C 93 % -0.99 C
840 10-01-2011 00:00:02 0.3 C 93 % -0.7 C
841 10-01-2011 00:12:02 0.6 C 93 % -0.4 C
842 10-01-2011 00:24:02 0.3 C 93 % -0.7 C
843 10-01-2011 00:36:02 -0.2 C 93 % -1.19 C
844 10-01-2011 00:48:02 -0.2 C 93 % -1.19 C
845 10-01-2011 01:00:02 0.2 C 93 % -0.79 C
846 10-01-2011 01:12:02 0.3 C 93 % -0.7 C
847 10-01-2011 01:24:02 0.4 C 93 % -0.6 C
848 10-01-2011 01:36:02 0.3 C 94 % -0.55 C
849 10-01-2011 01:48:02 0.2 C 94 % -0.65 C
850 10-01-2011 02:00:02 0.2 C 94 % -0.65 C
Sensor: Nr:Datum:Temp:Feuchte:Taupunkt:
Aussen-T/F 851 10-01-2011 02:12:02 0.1 C 93 % -0.89 C
852 10-01-2011 02:24:02 0 C 94 % -0.85 C
853 10-01-2011 02:36:03 -0.1 C 94 % -0.95 C
854 10-01-2011 02:48:03 -0.1 C 94 % -0.95 C
855 10-01-2011 03:00:03 0 C 94 % -0.85 C
856 10-01-2011 03:12:03 0.2 C 94 % -0.65 C
857 10-01-2011 03:24:03 0.3 C 94 % -0.55 C
858 10-01-2011 03:36:03 0.2 C 94 % -0.65 C
859 10-01-2011 03:48:03 0.3 C 94 % -0.55 C
860 10-01-2011 04:00:03 0.4 C 94 % -0.45 C
861 10-01-2011 04:12:03 0.4 C 94 % -0.45 C
862 10-01-2011 04:24:03 0.4 C 94 % -0.45 C
863 10-01-2011 04:36:03 0.4 C 94 % -0.45 C
864 10-01-2011 04:48:03 0.3 C 94 % -0.55 C
865 10-01-2011 05:00:03 0.3 C 94 % -0.55 C
866 10-01-2011 05:12:03 0.3 C 94 % -0.55 C
867 10-01-2011 05:24:03 0.2 C 94 % -0.65 C
868 10-01-2011 05:36:03 0.3 C 94 % -0.55 C
869 10-01-2011 05:48:03 0.2 C 93 % -0.79 C
870 10-01-2011 06:00:03 0.2 C 93 % -0.79 C
871 10-01-2011 06:12:03 0.2 C 93 % -0.79 C
872 10-01-2011 06:24:03 0.2 C 93 % -0.79 C
873 10-01-2011 06:36:04 0.2 C 93 % -0.79 C
874 10-01-2011 06:48:04 0.2 C 93 % -0.79 C
875 10-01-2011 07:00:04 0.2 C 93 % -0.79 C
Sensor: Nr:Datum:Temp:Feuchte:Taupunkt:
Aussen-T/F 876 10-01-2011 07:12:01 -0.1 C 93 % -1.09 C
877 10-01-2011 07:24:02 0 C 93 % -0.99 C
878 10-01-2011 07:36:01 0.1 C 93 % -0.89 C
879 10-01-2011 07:48:02 0.3 C 93 % -0.7 C
880 10-01-2011 08:00:02 0.3 C 93 % -0.7 C
881 10-01-2011 08:12:01 0.2 C 92 % -0.94 C
882 10-01-2011 08:24:02 0.2 C 92 % -0.94 C
883 10-01-2011 08:36:01 0.1 C 91 % -1.19 C
884 10-01-2011 08:48:03 0.1 C 91 % -1.19 C
885 10-01-2011 09:00:03 0.2 C 91 % -1.09 C
886 10-01-2011 09:12:02 0.3 C 90 % -1.14 C
887 10-01-2011 09:24:02 0.4 C 90 % -1.04 C
888 10-01-2011 09:36:02 0.3 C 89 % -1.29 C
889 10-01-2011 09:48:02 0.4 C 89 % -1.2 C
890 10-01-2011 10:00:02 0.5 C 88 % -1.25 C
891 10-01-2011 10:12:02 0.2 C 87 % -1.7 C
892 10-01-2011 10:24:02 0.5 C 87 % -1.41 C
893 10-01-2011 10:36:02 0.7 C 86 % -1.37 C
894 10-01-2011 10:48:02 0.8 C 86 % -1.27 C
895 10-01-2011 11:00:02 1.1 C 84 % -1.29 C
896 10-01-2011 11:12:01 0.5 C 83 % -2.04 C
897 10-01-2011 11:24:01 0.8 C 82 % -1.91 C
898 10-01-2011 11:36:02 0.8 C 81 % -2.08 C
899 10-01-2011 11:48:02 1.2 C 80 % -1.86 C
900 10-01-2011 12:00:02 1.3 C 80 % -1.76 C
Sensor: Nr:Datum:Temp:Feuchte:Taupunkt:
Aussen-T/F 901 10-01-2011 12:12:02 1.7 C 79 % -1.54 C
902 10-01-2011 12:24:01 2.1 C 78 % -1.33 C
903 10-01-2011 12:36:02 2 C 78 % -1.42 C
904 10-01-2011 12:48:02 1.8 C 78 % -1.62 C
905 10-01-2011 13:00:02 2.1 C 78 % -1.33 C
906 10-01-2011 13:12:02 2 C 78 % -1.42 C
907 10-01-2011 13:24:01 2 C 79 % -1.25 C
908 10-01-2011 13:36:02 2.2 C 79 % -1.05 C
909 10-01-2011 13:48:02 2.2 C 78 % -1.23 C
910 10-01-2011 14:00:02 2.4 C 78 % -1.03 C
911 10-01-2011 14:12:02 2.5 C 78 % -0.94 C
912 10-01-2011 14:24:02 2.3 C 79 % -0.96 C
913 10-01-2011 14:36:02 2.1 C 78 % -1.33 C
914 10-01-2011 14:48:02 2 C 78 % -1.42 C
915 10-01-2011 15:00:02 2 C 78 % -1.42 C
916 10-01-2011 15:12:02 2.1 C 78 % -1.33 C
917 10-01-2011 15:24:02 2.1 C 78 % -1.33 C
918 10-01-2011 15:36:01 2.2 C 78 % -1.23 C
919 10-01-2011 15:48:02 2.1 C 78 % -1.33 C
920 10-01-2011 16:00:02 2.1 C 78 % -1.33 C
921 10-01-2011 16:12:01 2 C 78 % -1.42 C
922 10-01-2011 16:24:02 1.9 C 79 % -1.35 C
923 10-01-2011 16:36:02 1.8 C 79 % -1.44 C
924 10-01-2011 16:48:02 1.5 C 79 % -1.74 C
925 10-01-2011 17:00:02 1.2 C 80 % -1.86 C
Sensor: Nr:Datum:Temp:Feuchte:Taupunkt:
Aussen-T/F 926 10-01-2011 17:12:02 0.8 C 82 % -1.91 C
927 10-01-2011 17:24:02 0.7 C 83 % -1.85 C
928 10-01-2011 17:36:02 0.7 C 84 % -1.69 C
929 10-01-2011 17:48:02 0.8 C 84 % -1.59 C
930 10-01-2011 18:00:02 0.7 C 84 % -1.69 C
931 10-01-2011 18:12:01 0.4 C 84 % -1.98 C
932 10-01-2011 18:24:02 0.1 C 84 % -2.27 C
933 10-01-2011 18:36:02 -0.1 C 85 % -2.31 C
934 10-01-2011 18:48:02 0 C 86 % -2.05 C
935 10-01-2011 19:00:02 0.1 C 87 % -1.8 C
936 10-01-2011 19:12:02 0.2 C 87 % -1.7 C
937 10-01-2011 19:24:02 0.2 C 88 % -1.55 C
938 10-01-2011 19:36:02 0.4 C 88 % -1.35 C
939 10-01-2011 19:48:02 0.4 C 88 % -1.35 C
940 10-01-2011 20:00:02 0.4 C 88 % -1.35 C
941 10-01-2011 20:12:02 0.6 C 87 % -1.31 C
942 10-01-2011 20:24:01 0.8 C 86 % -1.27 C
943 10-01-2011 20:36:02 0.8 C 84 % -1.59 C
944 10-01-2011 20:48:02 0.8 C 83 % -1.75 C
945 10-01-2011 21:00:02 0.7 C 81 % -2.18 C
946 10-01-2011 21:12:02 0.6 C 80 % -2.44 C
947 10-01-2011 21:24:01 0.5 C 80 % -2.54 C
948 10-01-2011 21:36:02 0.5 C 80 % -2.54 C
949 10-01-2011 21:48:02 0.5 C 80 % -2.54 C
950 10-01-2011 22:00:02 0.5 C 81 % -2.37 C
Sensor: Nr:Datum:Temp:Feuchte:Taupunkt:
Aussen-T/F 951 10-01-2011 22:12:02 0.5 C 81 % -2.37 C
952 10-01-2011 22:25:04 0.5 C 81 % -2.37 C
953 10-01-2011 22:37:04 0.5 C 81 % -2.37 C
954 10-01-2011 22:49:04 0.5 C 80 % -2.54 C
955 10-01-2011 23:01:04 0.5 C 80 % -2.54 C
956 10-01-2011 23:13:04 0.5 C 80 % -2.54 C
957 10-01-2011 23:25:04 0.5 C 80 % -2.54 C
958 10-01-2011 23:37:04 0.6 C 81 % -2.28 C
959 10-01-2011 23:49:04 0.6 C 81 % -2.28 C
960 11-01-2011 00:01:04 0.6 C 80 % -2.44 C
961 11-01-2011 00:13:05 0.5 C 79 % -2.71 C
962 11-01-2011 00:25:05 0.3 C 80 % -2.73 C
963 11-01-2011 00:37:05 -0.2 C 80 % -3.23 C
964 11-01-2011 00:49:05 -0.4 C 82 % -3.09 C
965 11-01-2011 01:01:05 -0.2 C 84 % -2.57 C
966 11-01-2011 01:13:05 -0.1 C 84 % -2.47 C
967 11-01-2011 01:25:05 -0.4 C 85 % -2.61 C
968 11-01-2011 01:37:05 -0.1 C 86 % -2.16 C
969 11-01-2011 01:49:05 0.2 C 86 % -1.86 C
970 11-01-2011 02:01:05 0.6 C 85 % -1.62 C
971 11-01-2011 02:13:05 0.7 C 83 % -1.85 C
972 11-01-2011 02:25:05 0.8 C 82 % -1.91 C
973 11-01-2011 02:37:05 1 C 79 % -2.22 C
974 11-01-2011 02:49:05 0.8 C 79 % -2.42 C
975 11-01-2011 03:01:05 0.8 C 79 % -2.42 C
Sensor: Nr:Datum:Temp:Feuchte:Taupunkt:
Aussen-T/F 976 11-01-2011 03:13:05 0.8 C 79 % -2.42 C
977 11-01-2011 03:25:05 0.6 C 80 % -2.44 C
978 11-01-2011 03:37:05 0.8 C 80 % -2.25 C
979 11-01-2011 03:49:05 0.6 C 80 % -2.44 C
980 11-01-2011 04:01:05 0.3 C 80 % -2.73 C
981 11-01-2011 04:13:06 0.2 C 81 % -2.67 C
982 11-01-2011 04:25:06 0.1 C 82 % -2.6 C
983 11-01-2011 04:37:06 0.6 C 82 % -2.11 C
984 11-01-2011 04:49:06 0.9 C 81 % -1.98 C
985 11-01-2011 05:01:06 1.1 C 79 % -2.12 C
986 11-01-2011 05:13:06 1.1 C 79 % -2.12 C
987 11-01-2011 05:25:06 1.1 C 79 % -2.12 C
988 11-01-2011 05:37:06 1.1 C 79 % -2.12 C
989 11-01-2011 05:49:06 1.1 C 79 % -2.12 C
990 11-01-2011 06:01:06 1.2 C 79 % -2.03 C
991 11-01-2011 06:13:06 1.2 C 79 % -2.03 C
992 11-01-2011 06:25:06 1.3 C 79 % -1.93 C
993 11-01-2011 06:37:06 1.3 C 80 % -1.76 C
994 11-01-2011 06:49:06 1.3 C 80 % -1.76 C
995 11-01-2011 07:01:06 1.4 C 80 % -1.66 C
996 11-01-2011 07:13:06 1.4 C 81 % -1.49 C
997 11-01-2011 07:25:03 1.4 C 81 % -1.49 C
998 11-01-2011 07:37:03 1.4 C 81 % -1.49 C
999 11-01-2011 07:49:02 1.5 C 82 % -1.23 C
1000 11-01-2011 08:01:02 1.5 C 82 % -1.23 C
Sensor: Nr:Datum:Temp:Feuchte:Taupunkt:
Aussen-T/F 1001 11-01-2011 08:13:02 1.5 C 82 % -1.23 C
1002 11-01-2011 08:25:03 1.5 C 83 % -1.06 C
1003 11-01-2011 08:37:02 1.5 C 83 % -1.06 C
1004 11-01-2011 08:49:03 1.5 C 84 % -0.9 C
1005 11-01-2011 09:01:02 1.6 C 84 % -0.8 C
1006 11-01-2011 09:13:02 1.8 C 85 % -0.45 C
1007 11-01-2011 09:25:02 2 C 84 % -0.41 C
1008 11-01-2011 09:37:02 2.3 C 83 % -0.28 C
1009 11-01-2011 09:49:02 2.6 C 82 % -0.16 C
1010 11-01-2011 10:01:02 2.9 C 80 % -0.2 C
1011 11-01-2011 10:13:02 3.2 C 78 % -0.26 C
1012 11-01-2011 10:25:02 3.2 C 76 % -0.61 C
1013 11-01-2011 10:37:02 3.2 C 76 % -0.61 C
1014 11-01-2011 10:49:02 2.7 C 78 % -0.74 C
1015 11-01-2011 11:01:02 2.5 C 80 % -0.59 C
1016 11-01-2011 11:13:02 2.6 C 82 % -0.16 C
1017 11-01-2011 11:25:02 2.8 C 83 % 0.21 C
1018 11-01-2011 11:37:02 3.7 C 83 % 1.09 C
1019 11-01-2011 11:49:02 4.8 C 76 % 0.94 C
1020 11-01-2011 12:01:02 5.4 C 68 % -0.02 C
1021 11-01-2011 12:13:02 5.7 C 65 % -0.35 C
1022 11-01-2011 12:25:02 5.7 C 64 % -0.56 C
1023 11-01-2011 12:37:01 5.6 C 65 % -0.45 C
1024 11-01-2011 12:49:02 5.1 C 67 % -0.51 C
1025 11-01-2011 13:01:01 5.2 C 69 % -0.01 C
Sensor: Nr:Datum:Temp:Feuchte:Taupunkt:
Aussen-T/F 1026 11-01-2011 13:13:01 5.1 C 69 % -0.11 C
1027 11-01-2011 13:25:01 5.3 C 68 % -0.12 C
1028 11-01-2011 13:37:02 5.5 C 69 % 0.28 C
1029 11-01-2011 13:49:02 5.4 C 68 % -0.02 C
1030 11-01-2011 14:01:02 5.3 C 70 % 0.28 C
1031 11-01-2011 14:13:02 5.3 C 71 % 0.48 C
1032 11-01-2011 14:25:02 5.3 C 70 % 0.28 C
1033 11-01-2011 14:37:02 5.3 C 71 % 0.48 C
1034 11-01-2011 14:49:02 5.3 C 71 % 0.48 C
1035 11-01-2011 15:01:02 5.3 C 73 % 0.86 C
1036 11-01-2011 15:13:02 5.5 C 72 % 0.86 C
1037 11-01-2011 15:25:02 5.6 C 71 % 0.77 C
1038 11-01-2011 15:37:02 5.3 C 73 % 0.86 C
1039 11-01-2011 15:49:01 5.1 C 75 % 1.04 C
1040 11-01-2011 16:01:01 4.8 C 79 % 1.47 C
1041 11-01-2011 16:13:01 4.6 C 82 % 1.8 C
1042 11-01-2011 16:25:02 4.5 C 83 % 1.87 C
1043 11-01-2011 16:37:01 4.5 C 83 % 1.87 C
1044 11-01-2011 16:49:03 4.5 C 83 % 1.87 C
1045 11-01-2011 17:01:02 4.7 C 83 % 2.07 C
1046 11-01-2011 17:13:02 4.7 C 82 % 1.9 C
1047 11-01-2011 17:25:02 5.2 C 79 % 1.86 C
1048 11-01-2011 17:37:02 5.4 C 78 % 1.88 C
1049 11-01-2011 17:49:02 5.5 C 77 % 1.8 C
1050 11-01-2011 18:01:02 5.3 C 78 % 1.78 C
Sensor: Nr:Datum:Temp:Feuchte:Taupunkt:
Aussen-T/F 1051 11-01-2011 18:13:02 5.3 C 79 % 1.96 C
1052 11-01-2011 18:25:02 5.4 C 79 % 2.06 C
1053 11-01-2011 18:37:02 5.6 C 79 % 2.25 C
1054 11-01-2011 18:49:02 5.8 C 78 % 2.27 C
1055 11-01-2011 19:01:01 6 C 76 % 2.1 C
1056 11-01-2011 19:13:01 6 C 76 % 2.1 C
1057 11-01-2011 19:25:01 6 C 77 % 2.28 C
1058 11-01-2011 19:37:02 6 C 77 % 2.28 C
1059 11-01-2011 19:49:02 5.9 C 78 % 2.37 C
1060 11-01-2011 20:01:02 6 C 77 % 2.28 C
1061 11-01-2011 20:13:02 6.1 C 77 % 2.38 C
1062 11-01-2011 20:25:02 6.1 C 77 % 2.38 C
1063 11-01-2011 20:37:02 6.2 C 76 % 2.29 C
1064 11-01-2011 20:49:02 6.3 C 75 % 2.2 C
1065 11-01-2011 21:01:02 6.3 C 76 % 2.39 C
1066 11-01-2011 21:13:02 6.3 C 76 % 2.39 C
1067 11-01-2011 21:25:02 6.1 C 77 % 2.38 C
1068 11-01-2011 21:37:02 6.1 C 78 % 2.56 C
1069 11-01-2011 21:50:03 6 C 79 % 2.64 C
1070 11-01-2011 22:02:03 5.8 C 81 % 2.8 C
1071 11-01-2011 22:14:03 5.9 C 82 % 3.07 C
1072 11-01-2011 22:26:03 5.9 C 82 % 3.07 C
1073 11-01-2011 22:38:03 6.3 C 81 % 3.29 C
1074 11-01-2011 22:50:03 5.9 C 82 % 3.07 C
1075 11-01-2011 23:02:03 5.9 C 84 % 3.41 C
Sensor: Nr:Datum:Temp:Feuchte:Taupunkt:
Aussen-T/F 1076 11-01-2011 23:14:03 5.9 C 84 % 3.41 C
1077 11-01-2011 23:26:03 6 C 83 % 3.34 C
1078 11-01-2011 23:38:03 6.1 C 82 % 3.26 C
1079 11-01-2011 23:50:03 6.1 C 81 % 3.09 C
1080 12-01-2011 00:02:03 6.3 C 78 % 2.75 C
1081 12-01-2011 00:14:03 6.5 C 75 % 2.4 C
1082 12-01-2011 00:26:03 6.2 C 73 % 1.73 C
1083 12-01-2011 00:38:03 5.9 C 73 % 1.44 C
1084 12-01-2011 00:50:04 5.8 C 74 % 1.53 C
1085 12-01-2011 01:02:04 5.9 C 74 % 1.63 C
1086 12-01-2011 01:14:04 5.8 C 74 % 1.53 C
1087 12-01-2011 01:26:04 6 C 72 % 1.35 C
1088 12-01-2011 01:38:04 6 C 71 % 1.15 C
1089 12-01-2011 01:50:04 6.1 C 70 % 1.05 C
1090 12-01-2011 02:02:04 6 C 70 % 0.95 C
1091 12-01-2011 02:14:04 6 C 70 % 0.95 C
1092 12-01-2011 02:26:04 5.9 C 71 % 1.06 C
1093 12-01-2011 02:38:04 5.9 C 70 % 0.86 C
1094 12-01-2011 02:50:04 5.7 C 70 % 0.67 C
1095 12-01-2011 03:02:04 5.5 C 71 % 0.67 C
1096 12-01-2011 03:14:04 5 C 75 % 0.95 C
1097 12-01-2011 03:26:04 4.9 C 78 % 1.39 C
1098 12-01-2011 03:38:04 4.7 C 79 % 1.38 C
1099 12-01-2011 03:50:04 4.5 C 80 % 1.36 C
1100 12-01-2011 04:02:04 4.3 C 82 % 1.51 C
Sensor: Nr:Datum:Temp:Feuchte:Taupunkt:
Aussen-T/F 1101 12-01-2011 04:14:04 4.3 C 82 % 1.51 C
1102 12-01-2011 04:26:04 4.1 C 83 % 1.48 C
1103 12-01-2011 04:38:04 3.9 C 85 % 1.61 C
1104 12-01-2011 04:50:05 3.8 C 86 % 1.68 C
1105 12-01-2011 05:02:05 3.8 C 85 % 1.52 C
1106 12-01-2011 05:14:05 3.8 C 84 % 1.35 C
1107 12-01-2011 05:26:05 3.7 C 84 % 1.25 C
1108 12-01-2011 05:38:05 3.7 C 83 % 1.09 C
1109 12-01-2011 05:50:05 3.8 C 83 % 1.19 C
1110 12-01-2011 06:02:05 3.6 C 83 % 0.99 C
1111 12-01-2011 06:14:05 3.5 C 84 % 1.06 C
1112 12-01-2011 06:26:05 3.6 C 83 % 0.99 C
1113 12-01-2011 06:38:05 3.6 C 83 % 0.99 C
1114 12-01-2011 06:50:05 3.5 C 82 % 0.72 C
1115 12-01-2011 07:02:02 3.5 C 82 % 0.72 C
1116 12-01-2011 07:14:02 3.6 C 82 % 0.82 C
1117 12-01-2011 07:26:02 3.3 C 82 % 0.53 C
1118 12-01-2011 07:38:02 3.1 C 83 % 0.5 C
1119 12-01-2011 07:50:01 3.1 C 84 % 0.67 C
1120 12-01-2011 08:02:01 3 C 84 % 0.57 C
1121 12-01-2011 08:14:01 2.8 C 84 % 0.37 C
1122 12-01-2011 08:26:01 3.1 C 84 % 0.67 C
1123 12-01-2011 08:38:01 3 C 84 % 0.57 C
1124 12-01-2011 08:50:01 3 C 84 % 0.57 C
1125 12-01-2011 09:02:01 3.5 C 84 % 1.06 C
Sensor: Nr:Datum:Temp:Feuchte:Taupunkt:
Aussen-T/F 1126 12-01-2011 09:14:01 3.5 C 82 % 0.72 C
1127 12-01-2011 09:26:02 3.7 C 82 % 0.92 C
1128 12-01-2011 09:38:01 4 C 78 % 0.52 C
1129 12-01-2011 09:50:02 4.5 C 75 % 0.46 C
1130 12-01-2011 10:02:02 4.6 C 73 % 0.19 C
1131 12-01-2011 10:14:02 4.7 C 74 % 0.47 C
1132 12-01-2011 10:26:01 4.9 C 73 % 0.48 C
1133 12-01-2011 10:38:02 4.9 C 72 % 0.29 C
1134 12-01-2011 10:50:02 5 C 71 % 0.19 C
1135 12-01-2011 11:02:02 5.1 C 71 % 0.29 C
1136 12-01-2011 11:14:02 5.2 C 70 % 0.19 C
1137 12-01-2011 11:26:01 5.4 C 69 % 0.18 C
1138 12-01-2011 11:38:02 5.3 C 70 % 0.28 C
1139 12-01-2011 11:50:01 5.3 C 71 % 0.48 C
1140 12-01-2011 12:02:02 5.2 C 72 % 0.58 C
1141 12-01-2011 12:14:02 5 C 74 % 0.76 C
1142 12-01-2011 12:26:02 4.8 C 76 % 0.94 C
1143 12-01-2011 12:38:02 4.7 C 77 % 1.02 C
1144 12-01-2011 12:50:02 4.7 C 78 % 1.2 C
1145 12-01-2011 13:02:02 4.7 C 78 % 1.2 C
1146 12-01-2011 13:14:03 4.9 C 79 % 1.57 C
1147 12-01-2011 13:26:01 5 C 79 % 1.67 C
1148 12-01-2011 13:38:46 5 C 80 % 1.84 C
1149 12-01-2011 13:50:02 4.9 C 82 % 2.09 C
1150 12-01-2011 14:02:02 5 C 81 % 2.02 C
Sensor: Nr:Datum:Temp:Feuchte:Taupunkt:
Aussen-T/F 1151 12-01-2011 14:14:02 5.1 C 80 % 1.94 C
1152 12-01-2011 14:26:02 5.1 C 81 % 2.12 C
1153 12-01-2011 14:38:02 5.1 C 81 % 2.12 C
1154 12-01-2011 14:50:02 5.3 C 80 % 2.14 C
1155 12-01-2011 15:02:01 5.6 C 78 % 2.07 C
1156 12-01-2011 15:14:01 5.4 C 78 % 1.88 C
1157 12-01-2011 15:26:02 5.2 C 79 % 1.86 C
1158 12-01-2011 15:38:02 5.3 C 80 % 2.14 C
1159 12-01-2011 15:50:02 5.6 C 79 % 2.25 C
1160 12-01-2011 16:02:02 6 C 75 % 1.91 C
1161 12-01-2011 16:14:02 5.9 C 76 % 2 C
1162 12-01-2011 16:26:02 6 C 75 % 1.91 C
1163 12-01-2011 16:38:02 6.1 C 75 % 2.01 C
1164 12-01-2011 16:50:02 6.2 C 75 % 2.11 C
1165 12-01-2011 17:02:02 6.2 C 75 % 2.11 C
1166 12-01-2011 17:14:02 6.3 C 75 % 2.2 C
1167 12-01-2011 17:26:02 6.4 C 75 % 2.3 C
1168 12-01-2011 17:38:02 6 C 77 % 2.28 C
1169 12-01-2011 17:50:01 6.1 C 79 % 2.74 C
1170 12-01-2011 18:02:02 6.3 C 78 % 2.75 C
1171 12-01-2011 18:14:02 6 C 80 % 2.82 C
1172 12-01-2011 18:26:01 6 C 81 % 2.99 C
1173 12-01-2011 18:38:01 6.2 C 82 % 3.36 C
1174 12-01-2011 18:50:01 6.1 C 83 % 3.44 C
1175 12-01-2011 19:02:01 6.1 C 83 % 3.44 C
Sensor: Nr:Datum:Temp:Feuchte:Taupunkt:
Aussen-T/F 1176 12-01-2011 19:14:01 6 C 84 % 3.51 C
1177 12-01-2011 19:26:02 6.3 C 84 % 3.8 C
1178 12-01-2011 19:38:01 6.5 C 83 % 3.83 C
1179 12-01-2011 19:50:02 6.6 C 83 % 3.92 C
1180 12-01-2011 20:02:02 6.9 C 82 % 4.05 C
1181 12-01-2011 20:14:02 6.8 C 82 % 3.95 C
1182 12-01-2011 20:26:02 7 C 81 % 3.97 C
1183 12-01-2011 20:38:02 7.1 C 80 % 3.89 C
1184 12-01-2011 20:50:02 7.1 C 81 % 4.07 C
1185 12-01-2011 21:02:01 7.1 C 82 % 4.24 C
1186 12-01-2011 21:14:01 7.2 C 82 % 4.34 C
1187 12-01-2011 21:26:02 7.5 C 83 % 4.81 C
1188 12-01-2011 21:38:02 7.5 C 82 % 4.63 C
1189 12-01-2011 21:50:02 7.4 C 82 % 4.53 C
1190 12-01-2011 22:02:02 7.7 C 83 % 5 C
1191 12-01-2011 22:14:02 7.7 C 82 % 4.83 C
1192 12-01-2011 22:26:02 7.9 C 82 % 5.02 C
1193 12-01-2011 22:38:02 8.2 C 80 % 4.96 C
1194 12-01-2011 22:50:02 8.3 C 80 % 5.06 C
1195 12-01-2011 23:02:02 8.5 C 79 % 5.07 C
1196 12-01-2011 23:14:02 8.7 C 79 % 5.27 C
1197 12-01-2011 23:26:01 8.8 C 79 % 5.36 C
1198 12-01-2011 23:38:02 8.9 C 78 % 5.28 C
1199 12-01-2011 23:50:02 8.9 C 78 % 5.28 C
1200 13-01-2011 00:02:02 9 C 78 % 5.38 C
Sensor: Nr:Datum:Temp:Feuchte:Taupunkt:
Aussen-T/F 1201 13-01-2011 00:14:02 9.3 C 77 % 5.48 C
1202 13-01-2011 00:26:02 9.3 C 78 % 5.67 C
1203 13-01-2011 00:38:02 9.4 C 78 % 5.76 C
1204 13-01-2011 00:50:01 9.5 C 78 % 5.86 C
1205 13-01-2011 01:02:02 9.7 C 78 % 6.06 C
1206 13-01-2011 01:14:02 9.9 C 78 % 6.25 C
1207 13-01-2011 01:26:02 10 C 77 % 6.16 C
1208 13-01-2011 01:38:02 10.1 C 77 % 6.26 C
1209 13-01-2011 01:50:02 10.2 C 77 % 6.35 C
1210 13-01-2011 02:02:02 10.5 C 76 % 6.45 C
1211 13-01-2011 02:14:02 10.7 C 77 % 6.84 C
1212 13-01-2011 02:26:02 10.7 C 77 % 6.84 C
1213 13-01-2011 02:38:01 10.7 C 78 % 7.03 C
1214 13-01-2011 02:50:02 10.4 C 79 % 6.92 C
1215 13-01-2011 03:02:02 10.4 C 80 % 7.1 C
1216 13-01-2011 03:14:01 10.3 C 82 % 7.37 C
1217 13-01-2011 03:26:01 10.3 C 82 % 7.37 C
1218 13-01-2011 03:38:02 10.3 C 82 % 7.37 C
1219 13-01-2011 03:50:02 10.3 C 83 % 7.54 C
1220 13-01-2011 04:02:01 10.5 C 83 % 7.74 C
1221 13-01-2011 04:14:01 10.6 C 83 % 7.84 C
1222 13-01-2011 04:26:02 10.9 C 82 % 7.95 C
1223 13-01-2011 04:38:01 10.7 C 81 % 7.58 C
1224 13-01-2011 04:50:02 10.8 C 81 % 7.67 C
1225 13-01-2011 05:02:01 11 C 80 % 7.69 C
Sensor: Nr:Datum:Temp:Feuchte:Taupunkt:
Aussen-T/F 1226 13-01-2011 05:14:01 11.1 C 81 % 7.97 C
1227 13-01-2011 05:26:01 10.7 C 82 % 7.76 C
1228 13-01-2011 05:38:02 10.8 C 83 % 8.03 C
1229 13-01-2011 05:50:01 10.6 C 84 % 8.01 C
1230 13-01-2011 06:02:02 10.7 C 84 % 8.11 C
1231 13-01-2011 06:14:02 10.5 C 85 % 8.09 C
1232 13-01-2011 06:26:01 10.6 C 85 % 8.19 C
1233 13-01-2011 06:38:02 10.6 C 86 % 8.36 C
1234 13-01-2011 06:50:01 10.5 C 86 % 8.26 C
1235 13-01-2011 07:02:01 10.6 C 86 % 8.36 C
1236 13-01-2011 07:14:02 10.5 C 87 % 8.43 C
1237 13-01-2011 07:26:01 10.7 C 87 % 8.63 C
1238 13-01-2011 07:38:01 10.7 C 86 % 8.46 C
1239 13-01-2011 07:50:01 10.8 C 86 % 8.56 C
1240 13-01-2011 08:02:01 10.9 C 86 % 8.65 C
1241 13-01-2011 08:14:01 10.8 C 86 % 8.56 C
1242 13-01-2011 08:26:02 10.8 C 85 % 8.38 C
1243 13-01-2011 08:38:01 10.8 C 85 % 8.38 C
1244 13-01-2011 08:50:02 10.9 C 85 % 8.48 C
1245 13-01-2011 09:02:01 10.9 C 85 % 8.48 C
1246 13-01-2011 09:14:01 11.2 C 84 % 8.6 C
1247 13-01-2011 09:26:02 11.4 C 83 % 8.62 C
1248 13-01-2011 09:38:01 11.4 C 82 % 8.44 C
1249 13-01-2011 09:50:02 11.4 C 81 % 8.26 C
1250 13-01-2011 10:02:01 11.5 C 81 % 8.36 C
Sensor: Nr:Datum:Temp:Feuchte:Taupunkt:
Aussen-T/F 1251 13-01-2011 10:14:01 11.9 C 80 % 8.56 C
1252 13-01-2011 10:26:01 11.8 C 79 % 8.28 C
1253 13-01-2011 10:38:02 12.2 C 76 % 8.1 C
1254 13-01-2011 10:50:01 12.3 C 76 % 8.2 C
1255 13-01-2011 11:02:02 12.5 C 76 % 8.39 C
1256 13-01-2011 11:14:02 12.3 C 76 % 8.2 C
1257 13-01-2011 11:26:01 12.6 C 74 % 8.09 C
1258 13-01-2011 11:38:01 12.5 C 75 % 8.19 C
1259 13-01-2011 11:50:01 12.7 C 74 % 8.19 C
1260 13-01-2011 12:02:01 12.6 C 75 % 8.29 C
1261 13-01-2011 12:14:02 12.5 C 75 % 8.19 C
1262 13-01-2011 12:26:01 12.4 C 76 % 8.29 C
1263 13-01-2011 12:38:01 12.4 C 77 % 8.49 C
1264 13-01-2011 12:50:01 12.4 C 76 % 8.29 C
1265 13-01-2011 13:02:01 12.2 C 78 % 8.48 C
1266 13-01-2011 13:14:01 12.2 C 78 % 8.48 C
1267 13-01-2011 13:26:02 12.7 C 76 % 8.58 C
1268 13-01-2011 13:38:01 12.7 C 75 % 8.39 C
1269 13-01-2011 13:50:02 12.9 C 74 % 8.38 C
1270 13-01-2011 14:02:01 13 C 73 % 8.28 C
1271 13-01-2011 14:14:01 13 C 73 % 8.28 C
1272 13-01-2011 14:26:02 13.2 C 72 % 8.27 C
1273 13-01-2011 14:38:01 13.4 C 72 % 8.46 C
1274 13-01-2011 14:50:01 13.3 C 71 % 8.16 C
1275 13-01-2011 15:02:01 13.1 C 72 % 8.17 C
Sensor: Nr:Datum:Temp:Feuchte:Taupunkt:
Aussen-T/F 1276 13-01-2011 15:14:01 13.2 C 72 % 8.27 C
1277 13-01-2011 15:26:01 13.1 C 72 % 8.17 C
1278 13-01-2011 15:38:02 13 C 73 % 8.28 C
1279 13-01-2011 15:50:01 12.9 C 74 % 8.38 C
1280 13-01-2011 16:02:02 12.9 C 75 % 8.58 C
1281 13-01-2011 16:14:02 12.9 C 75 % 8.58 C
1282 13-01-2011 16:26:01 13 C 74 % 8.48 C
1283 13-01-2011 16:38:01 12.8 C 76 % 8.68 C
1284 13-01-2011 16:50:01 12.9 C 76 % 8.78 C
1285 13-01-2011 17:02:01 12.8 C 76 % 8.68 C
1286 13-01-2011 17:14:02 12.9 C 76 % 8.78 C
1287 13-01-2011 17:26:01 12.7 C 76 % 8.58 C
1288 13-01-2011 17:38:01 12.9 C 76 % 8.78 C
1289 13-01-2011 17:50:01 13 C 74 % 8.48 C
1290 13-01-2011 18:02:01 13 C 74 % 8.48 C
1291 13-01-2011 18:14:01 12.9 C 75 % 8.58 C
1292 13-01-2011 18:26:02 12.7 C 75 % 8.39 C
1293 13-01-2011 18:38:01 12.8 C 76 % 8.68 C
1294 13-01-2011 18:50:02 12.8 C 75 % 8.48 C
1295 13-01-2011 19:02:01 12.9 C 76 % 8.78 C
1296 13-01-2011 19:14:01 12.8 C 76 % 8.68 C
1297 13-01-2011 19:26:02 12.8 C 76 % 8.68 C
1298 13-01-2011 19:38:02 12.8 C 76 % 8.68 C
1299 13-01-2011 19:50:01 12.8 C 75 % 8.48 C
1300 13-01-2011 20:02:02 12.8 C 76 % 8.68 C
Sensor: Nr:Datum:Temp:Feuchte:Taupunkt:
Aussen-T/F 1301 13-01-2011 20:14:02 12.7 C 76 % 8.58 C
1302 13-01-2011 20:26:01 12.6 C 77 % 8.68 C
1303 13-01-2011 20:38:01 12.7 C 77 % 8.78 C
1304 13-01-2011 20:50:01 12.7 C 77 % 8.78 C
1305 13-01-2011 21:02:01 12.7 C 76 % 8.58 C
1306 13-01-2011 21:14:01 12.7 C 76 % 8.58 C
1307 13-01-2011 21:26:01 12.8 C 76 % 8.68 C
1308 13-01-2011 21:38:01 13 C 74 % 8.48 C
1309 13-01-2011 21:50:01 12.9 C 75 % 8.58 C
1310 13-01-2011 22:02:01 12.9 C 75 % 8.58 C
1311 13-01-2011 22:14:01 12.8 C 75 % 8.48 C
1312 13-01-2011 22:26:01 12.8 C 74 % 8.29 C
1313 13-01-2011 22:38:02 12.8 C 74 % 8.29 C
1314 13-01-2011 22:50:01 12.8 C 74 % 8.29 C
1315 13-01-2011 23:02:02 12.9 C 74 % 8.38 C
1316 13-01-2011 23:14:02 12.7 C 74 % 8.19 C
1317 13-01-2011 23:26:01 12.7 C 74 % 8.19 C
1318 13-01-2011 23:38:02 12.7 C 74 % 8.19 C
1319 13-01-2011 23:50:01 12.7 C 74 % 8.19 C
1320 14-01-2011 00:02:02 12.7 C 74 % 8.19 C
1321 14-01-2011 00:14:02 12.5 C 74 % 8 C
1322 14-01-2011 00:26:01 12.4 C 74 % 7.9 C
1323 14-01-2011 00:38:02 12.5 C 74 % 8 C
1324 14-01-2011 00:50:01 12.7 C 73 % 7.99 C
1325 14-01-2011 01:02:02 12.5 C 74 % 8 C
Sensor: Nr:Datum:Temp:Feuchte:Taupunkt:
Aussen-T/F 1326 14-01-2011 01:14:02 12.4 C 74 % 7.9 C
1327 14-01-2011 01:26:01 12.5 C 74 % 8 C
1328 14-01-2011 01:38:02 12.6 C 73 % 7.89 C
1329 14-01-2011 01:50:01 12.5 C 73 % 7.8 C
1330 14-01-2011 02:02:02 12.4 C 73 % 7.7 C
1331 14-01-2011 02:14:02 12.3 C 73 % 7.61 C
1332 14-01-2011 02:26:01 12.3 C 73 % 7.61 C
1333 14-01-2011 02:38:01 12.3 C 73 % 7.61 C
1334 14-01-2011 02:50:01 12.4 C 73 % 7.7 C
1335 14-01-2011 03:02:01 12.2 C 73 % 7.51 C
1336 14-01-2011 03:14:01 12.4 C 73 % 7.7 C
1337 14-01-2011 03:26:02 12.2 C 72 % 7.31 C
1338 14-01-2011 03:38:01 12.2 C 72 % 7.31 C
1339 14-01-2011 03:50:01 12.2 C 72 % 7.31 C
1340 14-01-2011 04:02:02 12.2 C 72 % 7.31 C
1341 14-01-2011 04:14:02 12.2 C 73 % 7.51 C
1342 14-01-2011 04:26:01 12.4 C 72 % 7.5 C
1343 14-01-2011 04:38:01 12.2 C 72 % 7.31 C
1344 14-01-2011 04:50:01 12.2 C 72 % 7.31 C
1345 14-01-2011 05:02:01 12.1 C 73 % 7.41 C
1346 14-01-2011 05:14:01 12.1 C 73 % 7.41 C
1347 14-01-2011 05:26:01 12.3 C 72 % 7.4 C
1348 14-01-2011 05:38:01 12.5 C 71 % 7.39 C
1349 14-01-2011 05:50:01 12.3 C 71 % 7.2 C
1350 14-01-2011 06:02:01 12.4 C 70 % 7.09 C
Sensor: Nr:Datum:Temp:Feuchte:Taupunkt:
Aussen-T/F 1351 14-01-2011 06:14:01 12.6 C 69 % 7.07 C
1352 14-01-2011 06:26:02 12.5 C 69 % 6.97 C
1353 14-01-2011 06:38:01 12.7 C 68 % 6.95 C
1354 14-01-2011 06:50:02 12.6 C 69 % 7.07 C
1355 14-01-2011 07:02:01 12.3 C 70 % 6.99 C
1356 14-01-2011 07:14:01 12.3 C 69 % 6.78 C
1357 14-01-2011 07:26:02 12.4 C 68 % 6.67 C
1358 14-01-2011 07:38:01 12.2 C 66 % 6.04 C
1359 14-01-2011 07:50:01 12.3 C 66 % 6.14 C
1360 14-01-2011 08:02:01 12.1 C 66 % 5.95 C
1361 14-01-2011 08:14:01 12.2 C 65 % 5.82 C
1362 14-01-2011 08:26:02 11.7 C 67 % 5.78 C
1363 14-01-2011 08:38:01 11.2 C 68 % 5.52 C
1364 14-01-2011 08:50:02 11.1 C 69 % 5.64 C
1365 14-01-2011 09:02:01 11.2 C 69 % 5.73 C
1366 14-01-2011 09:14:01 11.4 C 66 % 5.28 C
1367 14-01-2011 09:26:01 11.6 C 66 % 5.47 C
1368 14-01-2011 09:38:01 11.6 C 65 % 5.25 C
1369 14-01-2011 09:50:01 11.5 C 66 % 5.38 C
1370 14-01-2011 10:02:01 11.8 C 65 % 5.44 C
1371 14-01-2011 10:14:01 11.9 C 64 % 5.32 C
1372 14-01-2011 10:26:01 11.9 C 64 % 5.32 C
1373 14-01-2011 10:38:02 11.3 C 64 % 4.75 C
1374 14-01-2011 10:50:01 11.8 C 63 % 5 C
1375 14-01-2011 11:02:02 12 C 62 % 4.96 C
Sensor: Nr:Datum:Temp:Feuchte:Taupunkt:
Aussen-T/F 1376 14-01-2011 11:14:02 11.9 C 63 % 5.09 C
1377 14-01-2011 11:26:01 12 C 62 % 4.96 C
1378 14-01-2011 11:38:02 12 C 62 % 4.96 C
1379 14-01-2011 11:50:01 12.2 C 61 % 4.91 C
1380 14-01-2011 12:02:01 12 C 61 % 4.72 C
1381 14-01-2011 12:14:02 12.2 C 61 % 4.91 C
1382 14-01-2011 12:26:01 12.3 C 60 % 4.77 C
1383 14-01-2011 12:38:01 12.2 C 61 % 4.91 C
1384 14-01-2011 12:50:01 12 C 61 % 4.72 C
1385 14-01-2011 13:02:01 12 C 62 % 4.96 C
1386 14-01-2011 13:14:01 12 C 63 % 5.18 C
1387 14-01-2011 13:26:02 12 C 62 % 4.96 C
1388 14-01-2011 13:38:01 12 C 62 % 4.96 C
1389 14-01-2011 13:50:02 12 C 62 % 4.96 C
1390 14-01-2011 14:02:01 11.8 C 64 % 5.22 C
1391 14-01-2011 14:14:01 11.7 C 65 % 5.35 C
1392 14-01-2011 14:26:02 11.6 C 66 % 5.47 C
1393 14-01-2011 14:38:01 11.5 C 66 % 5.38 C
1394 14-01-2011 14:50:02 11.6 C 66 % 5.47 C
1395 14-01-2011 15:02:01 11.8 C 64 % 5.22 C
1396 14-01-2011 15:14:01 12 C 62 % 4.96 C
1397 14-01-2011 15:26:01 12.2 C 60 % 4.67 C
1398 14-01-2011 15:38:02 12.4 C 59 % 4.62 C
1399 14-01-2011 15:50:01 12.2 C 60 % 4.67 C
1400 14-01-2011 16:02:02 12.2 C 59 % 4.43 C
Sensor: Nr:Datum:Temp:Feuchte:Taupunkt:
Aussen-T/F 1401 14-01-2011 16:14:02 12.1 C 60 % 4.58 C
1402 14-01-2011 16:26:01 12 C 60 % 4.49 C
1403 14-01-2011 16:38:01 11.9 C 61 % 4.63 C
1404 14-01-2011 16:50:01 11.6 C 61 % 4.35 C
1405 14-01-2011 17:02:01 11.6 C 61 % 4.35 C
1406 14-01-2011 17:14:01 11.6 C 62 % 4.58 C
1407 14-01-2011 17:26:01 11.5 C 61 % 4.25 C
1408 14-01-2011 17:38:01 11.5 C 61 % 4.25 C
1409 14-01-2011 17:50:01 11.4 C 61 % 4.16 C
1410 14-01-2011 18:02:01 11.2 C 62 % 4.2 C
1411 14-01-2011 18:14:01 11 C 63 % 4.24 C
1412 14-01-2011 18:26:02 11.3 C 62 % 4.29 C
1413 14-01-2011 18:38:01 10.8 C 64 % 4.27 C
1414 14-01-2011 18:50:02 10.9 C 64 % 4.37 C
1415 14-01-2011 19:02:01 10.8 C 64 % 4.27 C
1416 14-01-2011 19:14:01 10.7 C 64 % 4.18 C
1417 14-01-2011 19:26:01 11 C 62 % 4.01 C
1418 14-01-2011 19:38:01 11.3 C 61 % 4.06 C
1419 14-01-2011 19:50:01 11.9 C 58 % 3.91 C
1420 14-01-2011 20:02:01 11.9 C 57 % 3.66 C
1421 14-01-2011 20:14:01 11.8 C 58 % 3.82 C
1422 14-01-2011 20:26:01 11.8 C 58 % 3.82 C
1423 14-01-2011 20:38:02 11.5 C 59 % 3.78 C
1424 14-01-2011 20:50:01 11.4 C 59 % 3.68 C
1425 14-01-2011 21:02:02 11.4 C 59 % 3.68 C
Sensor: Nr:Datum:Temp:Feuchte:Taupunkt:
Aussen-T/F 1426 14-01-2011 21:14:02 11.4 C 58 % 3.44 C
1427 14-01-2011 21:26:01 11.4 C 59 % 3.68 C
1428 14-01-2011 21:38:01 11.4 C 58 % 3.44 C
1429 14-01-2011 21:50:01 11.4 C 59 % 3.68 C
1430 14-01-2011 22:04:03 11.2 C 60 % 3.73 C
1431 14-01-2011 22:16:03 11.1 C 61 % 3.87 C
1432 14-01-2011 22:28:03 11.1 C 62 % 4.11 C
1433 14-01-2011 22:40:03 10.6 C 65 % 4.3 C
1434 14-01-2011 22:52:03 10.1 C 68 % 4.47 C
1435 14-01-2011 23:04:03 10 C 70 % 4.79 C
1436 14-01-2011 23:16:03 9.5 C 74 % 5.1 C
1437 14-01-2011 23:28:03 9.1 C 78 % 5.47 C
1438 14-01-2011 23:40:03 9.1 C 78 % 5.47 C
1439 14-01-2011 23:52:03 8.5 C 78 % 4.89 C
1440 15-01-2011 00:04:03 8.3 C 80 % 5.06 C
1441 15-01-2011 00:16:03 8 C 81 % 4.94 C
1442 15-01-2011 00:28:03 8.5 C 79 % 5.07 C
1443 15-01-2011 00:40:03 8.1 C 78 % 4.5 C
1444 15-01-2011 00:52:03 8.2 C 78 % 4.6 C
1445 15-01-2011 01:04:03 8.1 C 78 % 4.5 C
1446 15-01-2011 01:16:03 8.3 C 77 % 4.51 C
1447 15-01-2011 01:28:03 8.5 C 74 % 4.14 C
1448 15-01-2011 01:40:03 8.2 C 76 % 4.23 C
1449 15-01-2011 01:52:03 8 C 77 % 4.22 C
1450 15-01-2011 02:04:04 8.4 C 76 % 4.42 C
Sensor: Nr:Datum:Temp:Feuchte:Taupunkt:
Aussen-T/F 1451 15-01-2011 02:16:04 8.3 C 76 % 4.33 C
1452 15-01-2011 02:28:04 8.1 C 76 % 4.13 C
1453 15-01-2011 02:40:04 7.6 C 79 % 4.2 C
1454 15-01-2011 02:52:04 7.8 C 81 % 4.75 C
1455 15-01-2011 03:04:04 8 C 78 % 4.41 C
1456 15-01-2011 03:16:04 8.1 C 77 % 4.32 C
1457 15-01-2011 03:28:04 8.4 C 78 % 4.79 C
1458 15-01-2011 03:40:04 8.1 C 77 % 4.32 C
1459 15-01-2011 03:52:04 8 C 78 % 4.41 C
1460 15-01-2011 04:04:04 7.8 C 79 % 4.39 C
1461 15-01-2011 04:16:04 8 C 79 % 4.59 C
1462 15-01-2011 04:28:04 8.2 C 76 % 4.23 C
1463 15-01-2011 04:40:04 8.7 C 74 % 4.33 C
1464 15-01-2011 04:52:04 8.4 C 74 % 4.04 C
1465 15-01-2011 05:04:04 8.3 C 73 % 3.75 C
1466 15-01-2011 05:16:04 8.1 C 73 % 3.56 C
1467 15-01-2011 05:28:04 7.7 C 77 % 3.93 C
1468 15-01-2011 05:40:04 8 C 74 % 3.66 C
1469 15-01-2011 05:52:04 7.7 C 75 % 3.56 C
1470 15-01-2011 06:04:05 7.5 C 78 % 3.92 C
1471 15-01-2011 06:16:05 6.9 C 81 % 3.87 C
1472 15-01-2011 06:28:05 7.3 C 79 % 3.91 C
1473 15-01-2011 06:40:05 7.6 C 77 % 3.83 C
1474 15-01-2011 06:52:05 7.9 C 75 % 3.75 C
1475 15-01-2011 07:04:05 7.1 C 77 % 3.35 C
Sensor: Nr:Datum:Temp:Feuchte:Taupunkt:
Aussen-T/F 1476 15-01-2011 07:16:05 7.3 C 79 % 3.91 C
1477 15-01-2011 07:28:05 7 C 80 % 3.79 C
1478 15-01-2011 07:40:05 7 C 79 % 3.61 C
1479 15-01-2011 07:52:05 7 C 79 % 3.61 C
1480 15-01-2011 08:04:02 7 C 79 % 3.61 C
1481 15-01-2011 08:16:03 7.1 C 78 % 3.53 C
1482 15-01-2011 08:28:03 8 C 76 % 4.04 C
1483 15-01-2011 08:40:02 8 C 73 % 3.46 C
1484 15-01-2011 08:52:03 8.3 C 73 % 3.75 C
1485 15-01-2011 09:04:02 8.2 C 71 % 3.26 C
1486 15-01-2011 09:16:02 7.9 C 72 % 3.17 C
1487 15-01-2011 09:28:02 8.2 C 72 % 3.46 C
1488 15-01-2011 09:40:02 8.5 C 70 % 3.35 C
1489 15-01-2011 09:52:02 8.7 C 70 % 3.54 C
1490 15-01-2011 10:04:01 9.1 C 67 % 3.31 C
1491 15-01-2011 10:16:02 8.9 C 68 % 3.32 C
1492 15-01-2011 10:28:02 9 C 67 % 3.21 C
1493 15-01-2011 10:40:02 9.1 C 66 % 3.09 C
1494 15-01-2011 10:52:02 9.2 C 66 % 3.19 C
1495 15-01-2011 11:04:02 9.4 C 66 % 3.38 C
1496 15-01-2011 11:16:02 9.5 C 66 % 3.47 C
1497 15-01-2011 11:28:02 10.1 C 63 % 3.39 C
1498 15-01-2011 11:40:02 10.1 C 61 % 2.93 C
1499 15-01-2011 11:52:02 10.2 C 60 % 2.79 C
1500 15-01-2011 12:04:02 10.2 C 61 % 3.03 C
Sensor: Nr:Datum:Temp:Feuchte:Taupunkt:
Aussen-T/F 1501 15-01-2011 12:16:03 10.2 C 60 % 2.79 C
1502 15-01-2011 12:28:03 10.3 C 60 % 2.89 C
1503 15-01-2011 12:40:02 10.2 C 60 % 2.79 C
1504 15-01-2011 12:52:01 10.1 C 60 % 2.7 C
1505 15-01-2011 13:04:01 10.1 C 59 % 2.46 C
1506 15-01-2011 13:16:02 10 C 60 % 2.6 C
1507 15-01-2011 13:28:02 10 C 59 % 2.37 C
1508 15-01-2011 13:40:01 10 C 59 % 2.37 C
1509 15-01-2011 13:52:01 10.1 C 59 % 2.46 C
1510 15-01-2011 14:04:01 10.2 C 59 % 2.56 C
1511 15-01-2011 14:16:02 10 C 59 % 2.37 C
1512 15-01-2011 14:28:02 10 C 59 % 2.37 C
1513 15-01-2011 14:40:01 10 C 59 % 2.37 C
1514 15-01-2011 14:52:01 10 C 58 % 2.13 C
1515 15-01-2011 15:04:01 9.9 C 58 % 2.04 C
1516 15-01-2011 15:16:02 9.8 C 60 % 2.42 C
1517 15-01-2011 15:28:02 9.6 C 60 % 2.23 C
1518 15-01-2011 15:40:01 9.7 C 60 % 2.32 C
1519 15-01-2011 15:52:02 9.1 C 63 % 2.44 C
1520 15-01-2011 16:04:02 8.8 C 67 % 3.02 C
1521 15-01-2011 16:16:03 8.7 C 66 % 2.71 C
1522 15-01-2011 16:28:03 8.9 C 65 % 2.69 C
1523 15-01-2011 16:40:02 8.9 C 65 % 2.69 C
1524 15-01-2011 16:52:02 9.2 C 63 % 2.53 C
1525 15-01-2011 17:04:01 8.7 C 67 % 2.92 C
Sensor: Nr:Datum:Temp:Feuchte:Taupunkt:
Aussen-T/F 1526 15-01-2011 17:16:01 9.1 C 63 % 2.44 C
1527 15-01-2011 17:28:01 9.2 C 62 % 2.31 C
1528 15-01-2011 17:40:02 9 C 64 % 2.57 C
1529 15-01-2011 17:52:03 9.1 C 64 % 2.66 C
1530 15-01-2011 18:04:03 9.2 C 64 % 2.76 C
1531 15-01-2011 18:16:01 9.1 C 64 % 2.66 C
1532 15-01-2011 18:28:01 9 C 66 % 3 C
1533 15-01-2011 18:40:02 9 C 66 % 3 C
1534 15-01-2011 18:52:02 8.6 C 68 % 3.04 C
1535 15-01-2011 19:04:02 9.1 C 65 % 2.88 C
1536 15-01-2011 19:16:02 9.3 C 63 % 2.63 C
1537 15-01-2011 19:28:02 9.1 C 63 % 2.44 C
1538 15-01-2011 19:40:02 9.3 C 64 % 2.85 C
1539 15-01-2011 19:52:01 9.1 C 64 % 2.66 C
1540 15-01-2011 20:04:01 9.4 C 63 % 2.72 C
1541 15-01-2011 20:16:02 9.1 C 63 % 2.44 C
1542 15-01-2011 20:28:02 8.6 C 66 % 2.62 C
1543 15-01-2011 20:40:01 8.9 C 65 % 2.69 C
1544 15-01-2011 20:52:01 8.6 C 67 % 2.83 C
1545 15-01-2011 21:04:01 8.2 C 66 % 2.24 C
1546 15-01-2011 21:16:02 8.1 C 67 % 2.35 C
1547 15-01-2011 21:28:02 8 C 67 % 2.26 C
1548 15-01-2011 21:40:01 7.8 C 70 % 2.68 C
1549 15-01-2011 21:52:01 8.1 C 69 % 2.77 C
1550 15-01-2011 22:04:01 8.3 C 69 % 2.96 C
Sensor: Nr:Datum:Temp:Feuchte:Taupunkt:
Aussen-T/F 1551 15-01-2011 22:16:02 8.5 C 70 % 3.35 C
1552 15-01-2011 22:28:02 8.9 C 68 % 3.32 C
1553 15-01-2011 22:41:03 8.6 C 68 % 3.04 C
1554 15-01-2011 22:53:03 8.7 C 68 % 3.13 C
1555 15-01-2011 23:05:03 8.5 C 69 % 3.15 C
1556 15-01-2011 23:17:03 8.2 C 70 % 3.06 C
1557 15-01-2011 23:29:03 8.7 C 68 % 3.13 C
1558 15-01-2011 23:41:03 8.8 C 68 % 3.23 C
1559 15-01-2011 23:53:03 8.9 C 67 % 3.12 C
1560 16-01-2011 00:05:03 8.7 C 69 % 3.34 C
1561 16-01-2011 00:17:03 8.8 C 68 % 3.23 C
1562 16-01-2011 00:29:03 9 C 66 % 3 C
1563 16-01-2011 00:41:03 9 C 65 % 2.78 C
1564 16-01-2011 00:53:04 9 C 65 % 2.78 C
1565 16-01-2011 01:05:04 8.5 C 66 % 2.52 C
1566 16-01-2011 01:17:04 8.6 C 67 % 2.83 C
1567 16-01-2011 01:29:04 8 C 69 % 2.67 C
1568 16-01-2011 01:41:04 8 C 69 % 2.67 C
1569 16-01-2011 01:53:04 8.1 C 68 % 2.56 C
1570 16-01-2011 02:05:04 8.1 C 68 % 2.56 C
1571 16-01-2011 02:17:04 7.8 C 70 % 2.68 C
1572 16-01-2011 02:29:04 7.8 C 71 % 2.88 C
1573 16-01-2011 02:41:04 7.8 C 72 % 3.08 C
1574 16-01-2011 02:53:04 8.3 C 69 % 2.96 C
1575 16-01-2011 03:05:04 8.4 C 68 % 2.85 C
Sensor: Nr:Datum:Temp:Feuchte:Taupunkt:
Aussen-T/F 1576 16-01-2011 03:17:04 8.3 C 67 % 2.54 C
1577 16-01-2011 03:29:04 8.2 C 68 % 2.66 C
1578 16-01-2011 03:41:04 7.8 C 70 % 2.68 C
1579 16-01-2011 03:53:04 8 C 69 % 2.67 C
1580 16-01-2011 04:05:04 7.9 C 70 % 2.78 C
1581 16-01-2011 04:17:04 8.2 C 69 % 2.86 C
1582 16-01-2011 04:29:04 8.5 C 67 % 2.73 C
1583 16-01-2011 04:41:04 8.4 C 68 % 2.85 C
1584 16-01-2011 04:53:05 8.1 C 69 % 2.77 C
1585 16-01-2011 05:05:05 7.9 C 71 % 2.98 C
1586 16-01-2011 05:17:05 7.3 C 74 % 2.98 C
1587 16-01-2011 05:29:05 6.8 C 78 % 3.24 C
1588 16-01-2011 05:41:05 7 C 79 % 3.61 C
1589 16-01-2011 05:53:05 6.8 C 80 % 3.6 C
1590 16-01-2011 06:05:05 7 C 80 % 3.79 C
1591 16-01-2011 06:17:05 7.1 C 79 % 3.71 C
1592 16-01-2011 06:29:05 7.5 C 77 % 3.74 C
1593 16-01-2011 06:41:05 7 C 76 % 3.07 C
1594 16-01-2011 06:53:05 6.7 C 79 % 3.32 C
1595 16-01-2011 07:05:05 7.5 C 77 % 3.74 C
1596 16-01-2011 07:17:05 7.8 C 75 % 3.65 C
1597 16-01-2011 07:29:05 7.9 C 74 % 3.56 C
1598 16-01-2011 07:41:05 7.8 C 74 % 3.46 C
1599 16-01-2011 07:53:05 8.4 C 70 % 3.26 C
1600 16-01-2011 08:05:05 8.2 C 70 % 3.06 C
Sensor: Nr:Datum:Temp:Feuchte:Taupunkt:
Aussen-T/F 1601 16-01-2011 08:17:05 8.3 C 70 % 3.16 C
1602 16-01-2011 08:29:05 8.3 C 69 % 2.96 C
1603 16-01-2011 08:41:05 8.1 C 70 % 2.97 C
1604 16-01-2011 08:53:05 8.2 C 71 % 3.26 C
1605 16-01-2011 09:05:02 8.3 C 71 % 3.36 C
1606 16-01-2011 09:17:02 8 C 71 % 3.07 C
1607 16-01-2011 09:29:02 8 C 71 % 3.07 C
1608 16-01-2011 09:41:02 8 C 71 % 3.07 C
1609 16-01-2011 09:53:01 7.9 C 72 % 3.17 C
1610 16-01-2011 10:05:02 7.9 C 72 % 3.17 C
1611 16-01-2011 10:17:01 7.9 C 72 % 3.17 C
1612 16-01-2011 10:29:01 7.9 C 72 % 3.17 C
1613 16-01-2011 10:41:01 8 C 72 % 3.27 C
1614 16-01-2011 10:53:01 8.2 C 70 % 3.06 C
1615 16-01-2011 11:05:02 8.1 C 71 % 3.17 C
1616 16-01-2011 11:17:01 8.1 C 71 % 3.17 C
1617 16-01-2011 11:29:01 8.3 C 71 % 3.36 C
1618 16-01-2011 11:41:02 8.6 C 71 % 3.65 C
1619 16-01-2011 11:53:01 8.7 C 70 % 3.54 C
1620 16-01-2011 12:05:02 8.6 C 71 % 3.65 C
1621 16-01-2011 12:17:01 8.6 C 72 % 3.85 C
1622 16-01-2011 12:29:01 8.6 C 72 % 3.85 C
1623 16-01-2011 12:41:02 8.7 C 71 % 3.74 C
1624 16-01-2011 12:53:01 8.7 C 71 % 3.74 C
1625 16-01-2011 13:05:02 8.9 C 71 % 3.94 C
Sensor: Nr:Datum:Temp:Feuchte:Taupunkt:
Aussen-T/F 1626 16-01-2011 13:17:02 8.9 C 71 % 3.94 C
1627 16-01-2011 13:29:02 8.8 C 71 % 3.84 C
1628 16-01-2011 13:41:01 8.7 C 71 % 3.74 C
1629 16-01-2011 13:53:02 8.8 C 71 % 3.84 C
1630 16-01-2011 14:05:01 8.6 C 71 % 3.65 C
1631 16-01-2011 14:17:02 7.8 C 74 % 3.46 C
1632 16-01-2011 14:29:02 7.5 C 78 % 3.92 C
1633 16-01-2011 14:41:01 8.7 C 76 % 4.71 C
1634 16-01-2011 14:53:02 9.7 C 69 % 4.3 C
1635 16-01-2011 15:05:01 9.9 C 67 % 4.07 C
1636 16-01-2011 15:17:02 10 C 65 % 3.73 C
1637 16-01-2011 15:29:02 10 C 65 % 3.73 C
1638 16-01-2011 15:41:01 9.9 C 67 % 4.07 C
1639 16-01-2011 15:53:02 9.8 C 69 % 4.39 C
1640 16-01-2011 16:05:02 9.3 C 71 % 4.32 C
1641 16-01-2011 16:17:02 8.7 C 74 % 4.33 C
1642 16-01-2011 16:29:02 8 C 76 % 4.04 C
1643 16-01-2011 16:41:02 7.4 C 80 % 4.18 C
1644 16-01-2011 16:53:02 6.8 C 82 % 3.95 C
1645 16-01-2011 17:05:01 6.3 C 83 % 3.63 C
1646 16-01-2011 17:17:02 6.2 C 84 % 3.7 C
1647 16-01-2011 17:29:02 6 C 85 % 3.67 C
1648 16-01-2011 17:41:02 5.6 C 86 % 3.45 C
1649 16-01-2011 17:53:02 5.5 C 87 % 3.51 C
1650 16-01-2011 18:05:03 5.1 C 87 % 3.12 C
Sensor: Nr:Datum:Temp:Feuchte:Taupunkt:
Aussen-T/F 1651 16-01-2011 18:17:02 5 C 87 % 3.02 C
1652 16-01-2011 18:29:02 4.8 C 88 % 2.99 C
1653 16-01-2011 18:41:02 4.7 C 89 % 3.05 C
1654 16-01-2011 18:53:02 4.6 C 89 % 2.95 C
1655 16-01-2011 19:05:01 4.5 C 89 % 2.85 C
1656 16-01-2011 19:17:02 4.4 C 89 % 2.75 C
1657 16-01-2011 19:29:03 4.4 C 89 % 2.75 C
1658 16-01-2011 19:41:01 3.9 C 90 % 2.41 C
1659 16-01-2011 19:53:02 3.9 C 90 % 2.41 C
1660 16-01-2011 20:05:02 3.4 C 90 % 1.92 C
1661 16-01-2011 20:17:02 3.7 C 90 % 2.22 C
1662 16-01-2011 20:29:02 3.5 C 90 % 2.02 C
1663 16-01-2011 20:41:03 2.9 C 91 % 1.58 C
1664 16-01-2011 20:53:02 2.8 C 91 % 1.48 C
1665 16-01-2011 21:05:01 2.7 C 91 % 1.38 C
1666 16-01-2011 21:17:02 2.2 C 91 % 0.89 C
1667 16-01-2011 21:29:02 2.7 C 91 % 1.38 C
1668 16-01-2011 21:41:02 2.2 C 91 % 0.89 C
1669 16-01-2011 21:53:02 2.2 C 91 % 0.89 C
1670 16-01-2011 22:06:04 1.8 C 92 % 0.64 C
1671 16-01-2011 22:18:04 2.8 C 92 % 1.63 C
1672 16-01-2011 22:30:04 1.9 C 92 % 0.74 C
1673 16-01-2011 22:42:04 2.1 C 91 % 0.79 C
1674 16-01-2011 22:54:04 2.2 C 92 % 1.04 C
1675 16-01-2011 23:06:04 2.1 C 92 % 0.94 C
Sensor: Nr:Datum:Temp:Feuchte:Taupunkt:
Aussen-T/F 1676 16-01-2011 23:18:04 1.5 C 92 % 0.35 C
1677 16-01-2011 23:30:04 1.5 C 92 % 0.35 C
1678 16-01-2011 23:42:04 1.1 C 92 % -0.05 C
1679 16-01-2011 23:54:04 0.6 C 92 % -0.55 C

Legende:
   Min
   Max


Maximal/Minimal-Werte vom 03.01.2011 - 16.01.2011

Sensor Min Max Avg
Temp
(Aussen-T/F)
-8 °C
05-01-2011  08:55:02
14.7 °C
08-01-2011  14:22:02
4.85 °C
Feuchte
(Aussen-T/F)
46 %
08-01-2011  14:22:02
94 %
10-01-2011  01:36:02
79.15 %
Taupunkt
(Aussen-T/F)
-11.31 C
05-01-2011  08:55:02
8.78 C
13-01-2011  16:50:01
1.4 C

Die Daten stammen von einer Davis Vantage Pro 2 Wetter-Station und werden unter Linux mit der Software wview2wettercgi und aufbereitet. Alle Angaben erfolgen ohne Gewähr für ihre Vollständigkeit oder Richtigkeit.
Kontakt: Rainer Krienke krienke@uni-koblenz.de . Meine Webseiten an der Uni Koblenz oder privat.
Version: $Revision: 0.78 $